ETD455 OMAA-YSSY
Flight info
| Callsign | ETD455 |
|---|---|
| Flight time | 13h 3m |
| Altitude | 33000 |
| Route | KANIP N318 TOLDA P570 EMURU M300 VASTU P895 BIKOK M641 UBKAT/N0502F350 M641 DOGAR DCT 05S090E 10S094E 16S100E/N0491F370 DCT IKASA DCT 27S111E DCT POKIP DCT 31S118E/N0483F390 DCT SORTU DCT 33S123E 3330S12500E DCT MOSLA Y135 TEDUS J15 AD H247 CULIN Y59 RIVET |
| Aircraft | A35K/H-SDE2E3GHIJ3J4J5LM1ORWXY/LB1D1 |
Departure
| Time | 2026-04-29 20:31 |
|---|---|
| Airport | Zayed International Airport (OMAA) |
Arrival
| Time | 2026-04-30 09:34 |
|---|---|
| Airport | Sydney Kingsford Smith International Airport (YSSY) |
| Time | Latitude | Longitude | Altitude | Speed | Heading |
|---|---|---|---|---|---|
| 2026-04-29 19:36 | 24.44917 | 54.64399 | 81 ft | 0 kts | 258° |
| 2026-04-29 20:01 | 24.44910 | 54.64367 | 84 ft | 0 kts | 258° |
| 2026-04-29 20:02 | 24.44917 | 54.64402 | 82 ft | 0 kts | 258° |
| 2026-04-29 20:02 | 24.44905 | 54.64341 | 82 ft | 22 kts | 258° |
| 2026-04-29 20:02 | 24.44916 | 54.64394 | 81 ft | 0 kts | 258° |
| 2026-04-29 20:05 | 24.44917 | 54.64398 | 81 ft | 4 kts | 258° |
| 2026-04-29 20:05 | 24.44922 | 54.64427 | 83 ft | 4 kts | 258° |
| 2026-04-29 20:05 | 24.44928 | 54.64456 | 82 ft | 4 kts | 260° |
| 2026-04-29 20:05 | 24.44931 | 54.64485 | 85 ft | 4 kts | 265° |
| 2026-04-29 20:06 | 24.44933 | 54.64515 | 84 ft | 4 kts | 270° |
| 2026-04-29 20:06 | 24.44932 | 54.64544 | 85 ft | 4 kts | 275° |
| 2026-04-29 20:06 | 24.44929 | 54.64574 | 84 ft | 4 kts | 280° |
| 2026-04-29 20:06 | 24.44924 | 54.64602 | 84 ft | 4 kts | 286° |
| 2026-04-29 20:07 | 24.44915 | 54.64630 | 86 ft | 3 kts | 291° |
| 2026-04-29 20:07 | 24.44906 | 54.64657 | 86 ft | 4 kts | 292° |
| 2026-04-29 20:07 | 24.44895 | 54.64684 | 86 ft | 4 kts | 295° |
| 2026-04-29 20:07 | 24.44886 | 54.64700 | 87 ft | 5 kts | 298° |
| 2026-04-29 20:08 | 24.44885 | 54.64702 | 89 ft | 0 kts | 298° |
| 2026-04-29 20:08 | 24.44893 | 54.64686 | 88 ft | 0 kts | 298° |
| 2026-04-29 20:11 | 24.44897 | 54.64678 | 86 ft | 5 kts | 298° |
| 2026-04-29 20:11 | 24.44921 | 54.64623 | 106 ft | 11 kts | 288° |
| 2026-04-29 20:11 | 24.44920 | 54.64532 | 84 ft | 12 kts | 247° |
| 2026-04-29 20:12 | 24.44853 | 54.64505 | 86 ft | 11 kts | 167° |
| 2026-04-29 20:12 | 24.44783 | 54.64528 | 86 ft | 11 kts | 162° |
| 2026-04-29 20:12 | 24.44716 | 54.64561 | 86 ft | 11 kts | 148° |
| 2026-04-29 20:12 | 24.44661 | 54.64614 | 87 ft | 10 kts | 129° |
| 2026-04-29 20:13 | 24.44615 | 54.64674 | 87 ft | 10 kts | 129° |
| 2026-04-29 20:13 | 24.44582 | 54.64712 | 87 ft | 10 kts | 146° |
| 2026-04-29 20:13 | 24.44503 | 54.64693 | 85 ft | 10 kts | 217° |
| 2026-04-29 20:13 | 24.44430 | 54.64629 | 85 ft | 14 kts | 219° |
| 2026-04-29 20:14 | 24.44354 | 54.64563 | 85 ft | 14 kts | 218° |
| 2026-04-29 20:14 | 24.44284 | 54.64490 | 87 ft | 14 kts | 241° |
| 2026-04-29 20:14 | 24.44243 | 54.64400 | 86 ft | 13 kts | 220° |
| 2026-04-29 20:14 | 24.44171 | 54.64338 | 86 ft | 13 kts | 218° |
| 2026-04-29 20:15 | 24.44092 | 54.64326 | 87 ft | 12 kts | 154° |
| 2026-04-29 20:15 | 24.44035 | 54.64396 | 88 ft | 15 kts | 128° |
| 2026-04-29 20:15 | 24.43962 | 54.64499 | 87 ft | 17 kts | 128° |
| 2026-04-29 20:15 | 24.43889 | 54.64602 | 87 ft | 17 kts | 128° |
| 2026-04-29 20:16 | 24.43808 | 54.64716 | 87 ft | 20 kts | 128° |
| 2026-04-29 20:16 | 24.43723 | 54.64837 | 87 ft | 20 kts | 128° |
| 2026-04-29 20:16 | 24.43638 | 54.64957 | 87 ft | 20 kts | 128° |
| 2026-04-29 20:16 | 24.43555 | 54.65074 | 85 ft | 19 kts | 128° |
| 2026-04-29 20:17 | 24.43474 | 54.65188 | 85 ft | 19 kts | 128° |
| 2026-04-29 20:17 | 24.43394 | 54.65300 | 86 ft | 18 kts | 128° |
| 2026-04-29 20:17 | 24.43316 | 54.65408 | 88 ft | 18 kts | 128° |
| 2026-04-29 20:17 | 24.43239 | 54.65517 | 86 ft | 18 kts | 128° |
| 2026-04-29 20:18 | 24.43163 | 54.65624 | 86 ft | 18 kts | 128° |
| 2026-04-29 20:18 | 24.43087 | 54.65731 | 86 ft | 19 kts | 128° |
| 2026-04-29 20:18 | 24.43024 | 54.65820 | 84 ft | 25 kts | 128° |
| 2026-04-29 20:18 | 24.42905 | 54.65988 | 87 ft | 28 kts | 128° |
| 2026-04-29 20:19 | 24.42810 | 54.66122 | 85 ft | 18 kts | 128° |
| 2026-04-29 20:19 | 24.42735 | 54.66226 | 87 ft | 17 kts | 128° |
| 2026-04-29 20:19 | 24.42718 | 54.66321 | 87 ft | 12 kts | 61° |
| 2026-04-29 20:19 | 24.42725 | 54.66402 | 86 ft | 11 kts | 123° |
| 2026-04-29 20:20 | 24.42678 | 54.66467 | 86 ft | 11 kts | 128° |
| 2026-04-29 20:20 | 24.42630 | 54.66534 | 86 ft | 11 kts | 128° |
| 2026-04-29 20:20 | 24.42581 | 54.66602 | 87 ft | 12 kts | 128° |
| 2026-04-29 20:20 | 24.42530 | 54.66673 | 86 ft | 12 kts | 128° |
| 2026-04-29 20:21 | 24.42477 | 54.66746 | 86 ft | 12 kts | 127° |
| 2026-04-29 20:21 | 24.42425 | 54.66821 | 84 ft | 12 kts | 127° |
| 2026-04-29 20:21 | 24.42394 | 54.66854 | 86 ft | 0 kts | 151° |
| 2026-04-29 20:21 | 24.42392 | 54.66855 | 86 ft | 2 kts | 152° |
| 2026-04-29 20:22 | 24.42370 | 54.66858 | 87 ft | 0 kts | 188° |
| 2026-04-29 20:26 | 24.42337 | 54.66841 | 85 ft | 15 kts | 211° |
| 2026-04-29 20:26 | 24.42251 | 54.66770 | 86 ft | 15 kts | 218° |
| 2026-04-29 20:26 | 24.42198 | 54.66720 | 85 ft | 6 kts | 236° |
| 2026-04-29 20:26 | 24.42200 | 54.66680 | 83 ft | 5 kts | 292° |
| 2026-04-29 20:27 | 24.42216 | 54.66653 | 85 ft | 0 kts | 307° |
| 2026-04-29 20:30 | 24.42254 | 54.66599 | 86 ft | 26 kts | 307° |
| 2026-04-29 20:30 | 24.42499 | 54.66249 | 88 ft | 89 kts | 308° |
| 2026-04-29 20:30 | 24.43003 | 54.65544 | 88 ft | 144 kts | 308° |
| 2026-04-29 20:31 | 24.43725 | 54.64522 | 88 ft | 192 kts | 307° |
| 2026-04-29 20:31 | 24.44590 | 54.63271 | 388 ft | 214 kts | 309° |
| 2026-04-29 20:31 | 24.45530 | 54.61974 | 785 ft | 217 kts | 310° |
| 2026-04-29 20:31 | 24.46550 | 54.60831 | 1261 ft | 207 kts | 327° |
| 2026-04-29 20:32 | 24.47769 | 54.59897 | 1547 ft | 216 kts | 321° |
| 2026-04-29 20:32 | 24.48855 | 54.58769 | 1929 ft | 218 kts | 319° |
| 2026-04-29 20:32 | 24.49975 | 54.57581 | 2109 ft | 232 kts | 319° |
| 2026-04-29 20:32 | 24.51171 | 54.56329 | 2387 ft | 241 kts | 319° |
| 2026-04-29 20:33 | 24.52392 | 54.55053 | 2800 ft | 243 kts | 327° |
| 2026-04-29 20:33 | 24.53972 | 54.54500 | 3175 ft | 243 kts | 2° |
| 2026-04-29 20:33 | 24.55570 | 54.55083 | 3571 ft | 246 kts | 32° |
| 2026-04-29 20:33 | 24.56937 | 54.56229 | 4011 ft | 250 kts | 37° |
| 2026-04-29 20:34 | 24.58286 | 54.57457 | 4425 ft | 253 kts | 38° |
| 2026-04-29 20:34 | 24.59560 | 54.58781 | 4806 ft | 260 kts | 51° |
| 2026-04-29 20:34 | 24.60272 | 54.60614 | 5173 ft | 267 kts | 83° |
| 2026-04-29 20:34 | 24.59990 | 54.62648 | 5388 ft | 279 kts | 115° |
| 2026-04-29 20:35 | 24.58897 | 54.64440 | 5726 ft | 285 kts | 129° |
| 2026-04-29 20:35 | 24.57633 | 54.66121 | 6221 ft | 285 kts | 130° |
| 2026-04-29 20:35 | 24.56365 | 54.67801 | 6713 ft | 285 kts | 130° |
| 2026-04-29 20:35 | 24.55109 | 54.69500 | 7187 ft | 286 kts | 130° |
| 2026-04-29 20:36 | 24.53863 | 54.71215 | 7650 ft | 288 kts | 130° |
| 2026-04-29 20:36 | 24.52614 | 54.72950 | 8121 ft | 290 kts | 130° |
| 2026-04-29 20:36 | 24.51364 | 54.74697 | 8593 ft | 291 kts | 130° |
| 2026-04-29 20:36 | 24.50112 | 54.76452 | 9088 ft | 293 kts | 130° |
| 2026-04-29 20:37 | 24.48871 | 54.78205 | 9601 ft | 294 kts | 131° |
| 2026-04-29 20:37 | 24.47606 | 54.79984 | 10059 ft | 296 kts | 131° |
| 2026-04-29 20:37 | 24.46313 | 54.81796 | 10297 ft | 308 kts | 131° |
| 2026-04-29 20:37 | 24.44967 | 54.83683 | 10486 ft | 320 kts | 131° |
| 2026-04-29 20:38 | 24.43568 | 54.85645 | 10673 ft | 332 kts | 131° |
| 2026-04-29 20:38 | 24.42117 | 54.87683 | 10880 ft | 344 kts | 130° |
| 2026-04-29 20:38 | 24.40621 | 54.89784 | 11071 ft | 355 kts | 130° |
| 2026-04-29 20:38 | 24.39142 | 54.92005 | 11254 ft | 367 kts | 124° |
| 2026-04-29 20:39 | 24.37863 | 54.94490 | 11451 ft | 378 kts | 120° |
| 2026-04-29 20:39 | 24.36633 | 54.97079 | 11698 ft | 386 kts | 120° |
| 2026-04-29 20:39 | 24.35390 | 54.99712 | 12074 ft | 390 kts | 120° |
| 2026-04-29 20:39 | 24.34135 | 55.02357 | 12482 ft | 392 kts | 120° |
| 2026-04-29 20:40 | 24.32867 | 55.05019 | 12888 ft | 395 kts | 120° |
| 2026-04-29 20:40 | 24.31588 | 55.07686 | 13289 ft | 397 kts | 121° |
| 2026-04-29 20:40 | 24.30240 | 55.10334 | 13689 ft | 398 kts | 122° |
| 2026-04-29 20:40 | 24.28880 | 55.12952 | 14009 ft | 402 kts | 122° |
| 2026-04-29 20:41 | 24.27494 | 55.15628 | 14322 ft | 405 kts | 122° |
| 2026-04-29 20:41 | 24.26099 | 55.18329 | 14647 ft | 409 kts | 122° |
| 2026-04-29 20:41 | 24.24693 | 55.21056 | 14957 ft | 413 kts | 122° |
| 2026-04-29 20:41 | 24.23274 | 55.23813 | 15287 ft | 416 kts | 122° |
| 2026-04-29 20:42 | 24.21851 | 55.26579 | 15616 ft | 419 kts | 122° |
| 2026-04-29 20:42 | 24.20413 | 55.29371 | 15943 ft | 422 kts | 122° |
| 2026-04-29 20:42 | 24.18964 | 55.32186 | 16260 ft | 426 kts | 122° |
| 2026-04-29 20:42 | 24.17562 | 55.35058 | 16591 ft | 430 kts | 119° |
| 2026-04-29 20:43 | 24.16290 | 55.38047 | 16918 ft | 434 kts | 116° |
| 2026-04-29 20:43 | 24.15097 | 55.41101 | 17216 ft | 438 kts | 115° |
| 2026-04-29 20:43 | 24.13936 | 55.44198 | 17544 ft | 441 kts | 115° |
| 2026-04-29 20:43 | 24.12789 | 55.47285 | 17857 ft | 444 kts | 115° |
| 2026-04-29 20:44 | 24.11601 | 55.50463 | 18167 ft | 447 kts | 115° |
| 2026-04-29 20:44 | 24.10421 | 55.53583 | 18449 ft | 449 kts | 115° |
| 2026-04-29 20:44 | 24.09216 | 55.56740 | 18729 ft | 452 kts | 116° |
| 2026-04-29 20:44 | 24.07996 | 55.59914 | 19041 ft | 453 kts | 116° |
| 2026-04-29 20:45 | 24.06765 | 55.63102 | 19341 ft | 455 kts | 116° |
| 2026-04-29 20:45 | 24.05517 | 55.66293 | 19617 ft | 457 kts | 117° |
| 2026-04-29 20:45 | 24.04129 | 55.69431 | 19887 ft | 458 kts | 120° |
| 2026-04-29 20:45 | 24.02645 | 55.72493 | 20171 ft | 459 kts | 122° |
| 2026-04-29 20:46 | 24.01110 | 55.75564 | 20462 ft | 461 kts | 122° |
| 2026-04-29 20:46 | 23.99570 | 55.78644 | 20753 ft | 463 kts | 122° |
| 2026-04-29 20:46 | 23.98037 | 55.81748 | 21049 ft | 465 kts | 121° |
| 2026-04-29 20:46 | 23.96533 | 55.84836 | 21337 ft | 467 kts | 121° |
| 2026-04-29 20:47 | 23.95012 | 55.87994 | 21624 ft | 469 kts | 121° |
| 2026-04-29 20:47 | 23.93496 | 55.91159 | 21913 ft | 471 kts | 121° |
| 2026-04-29 20:47 | 23.91973 | 55.94348 | 22202 ft | 473 kts | 121° |
| 2026-04-29 20:47 | 23.90448 | 55.97542 | 22489 ft | 475 kts | 121° |
| 2026-04-29 20:48 | 23.88915 | 56.00749 | 22783 ft | 477 kts | 121° |
| 2026-04-29 20:48 | 23.87375 | 56.03970 | 23069 ft | 479 kts | 121° |
| 2026-04-29 20:48 | 23.85824 | 56.07209 | 23347 ft | 481 kts | 121° |
| 2026-04-29 20:48 | 23.84269 | 56.10453 | 23614 ft | 483 kts | 121° |
| 2026-04-29 20:49 | 23.82726 | 56.13667 | 23856 ft | 485 kts | 121° |
| 2026-04-29 20:49 | 23.81157 | 56.16932 | 24054 ft | 488 kts | 121° |
| 2026-04-29 20:49 | 23.79556 | 56.20261 | 24264 ft | 490 kts | 121° |
| 2026-04-29 20:49 | 23.77965 | 56.23569 | 24493 ft | 492 kts | 121° |
| 2026-04-29 20:50 | 23.76391 | 56.26841 | 24719 ft | 494 kts | 121° |
| 2026-04-29 20:50 | 23.74790 | 56.30165 | 24941 ft | 496 kts | 121° |
| 2026-04-29 20:50 | 23.73181 | 56.33506 | 25165 ft | 499 kts | 121° |
| 2026-04-29 20:50 | 23.71562 | 56.36865 | 25363 ft | 501 kts | 121° |
| 2026-04-29 20:51 | 23.69935 | 56.40237 | 25583 ft | 502 kts | 121° |
| 2026-04-29 20:51 | 23.68304 | 56.43614 | 25816 ft | 504 kts | 121° |
| 2026-04-29 20:51 | 23.66667 | 56.47002 | 26032 ft | 506 kts | 121° |
| 2026-04-29 20:51 | 23.65021 | 56.50406 | 26245 ft | 508 kts | 121° |
| 2026-04-29 20:52 | 23.63371 | 56.53814 | 26449 ft | 510 kts | 121° |
| 2026-04-29 20:52 | 23.61710 | 56.57244 | 26679 ft | 512 kts | 121° |
| 2026-04-29 20:52 | 23.60045 | 56.60678 | 26906 ft | 514 kts | 121° |
| 2026-04-29 20:52 | 23.58369 | 56.64134 | 27129 ft | 515 kts | 121° |
| 2026-04-29 20:53 | 23.56690 | 56.67594 | 27367 ft | 517 kts | 120° |
| 2026-04-29 20:53 | 23.55001 | 56.71074 | 27586 ft | 519 kts | 120° |
| 2026-04-29 20:53 | 23.53331 | 56.74511 | 27823 ft | 520 kts | 120° |
| 2026-04-29 20:53 | 23.51632 | 56.78006 | 28044 ft | 522 kts | 120° |
| 2026-04-29 20:54 | 23.48212 | 56.85030 | 28478 ft | 525 kts | 120° |
| 2026-04-29 20:54 | 23.46496 | 56.88553 | 28676 ft | 527 kts | 120° |
| 2026-04-29 20:54 | 23.44773 | 56.92085 | 28848 ft | 529 kts | 120° |
| 2026-04-29 20:55 | 23.43044 | 56.95630 | 29040 ft | 530 kts | 120° |
| 2026-04-29 20:55 | 23.41310 | 56.99183 | 29229 ft | 532 kts | 120° |
| 2026-04-29 20:55 | 23.39572 | 57.02740 | 29403 ft | 533 kts | 120° |
| 2026-04-29 20:55 | 23.37825 | 57.06310 | 29585 ft | 535 kts | 120° |
| 2026-04-29 20:56 | 23.36111 | 57.09868 | 29756 ft | 537 kts | 119° |
| 2026-04-29 20:56 | 23.34439 | 57.13510 | 29899 ft | 539 kts | 118° |
| 2026-04-29 20:56 | 23.32797 | 57.17183 | 30060 ft | 540 kts | 117° |
| 2026-04-29 20:56 | 23.31159 | 57.20869 | 30228 ft | 541 kts | 117° |
| 2026-04-29 20:57 | 23.29520 | 57.24544 | 30461 ft | 539 kts | 118° |
| 2026-04-29 20:57 | 23.27876 | 57.28211 | 30729 ft | 537 kts | 118° |
| 2026-04-29 20:57 | 23.26228 | 57.31862 | 30951 ft | 536 kts | 118° |
| 2026-04-29 20:57 | 23.24583 | 57.35489 | 31195 ft | 535 kts | 118° |
| 2026-04-29 20:58 | 23.22933 | 57.39117 | 31511 ft | 532 kts | 118° |
| 2026-04-29 20:58 | 23.21292 | 57.42719 | 31808 ft | 530 kts | 118° |
| 2026-04-29 20:58 | 23.19675 | 57.46264 | 32048 ft | 529 kts | 118° |
| 2026-04-29 20:58 | 23.18045 | 57.49837 | 32308 ft | 527 kts | 118° |
| 2026-04-29 20:59 | 23.16414 | 57.53408 | 32535 ft | 526 kts | 118° |
| 2026-04-29 20:59 | 23.14786 | 57.56971 | 32733 ft | 526 kts | 118° |
| 2026-04-29 20:59 | 23.13155 | 57.60537 | 32880 ft | 527 kts | 118° |
| 2026-04-29 21:00 | 23.09869 | 57.67715 | 32891 ft | 532 kts | 118° |
| 2026-04-29 21:00 | 23.06576 | 57.74903 | 32885 ft | 531 kts | 118° |
| 2026-04-29 21:01 | 23.03299 | 57.82045 | 32884 ft | 531 kts | 118° |
| 2026-04-29 21:01 | 23.00004 | 57.89218 | 32872 ft | 531 kts | 118° |
| 2026-04-29 21:02 | 22.96702 | 57.96387 | 32870 ft | 531 kts | 118° |
| 2026-04-29 21:02 | 22.93397 | 58.03553 | 32859 ft | 531 kts | 118° |
| 2026-04-29 21:03 | 22.90087 | 58.10719 | 32860 ft | 531 kts | 118° |
| 2026-04-29 21:03 | 22.86777 | 58.17875 | 32851 ft | 531 kts | 118° |
| 2026-04-29 21:04 | 22.83480 | 58.24993 | 32850 ft | 531 kts | 118° |
| 2026-04-29 21:04 | 22.80159 | 58.32152 | 32845 ft | 531 kts | 118° |
| 2026-04-29 21:05 | 22.76836 | 58.39307 | 32845 ft | 531 kts | 118° |
| 2026-04-29 21:05 | 22.73510 | 58.46456 | 32843 ft | 530 kts | 118° |
| 2026-04-29 21:06 | 22.70747 | 58.52389 | 32838 ft | 530 kts | 118° |
| 2026-04-29 21:06 | 22.66903 | 58.59164 | 32846 ft | 526 kts | 132° |
| 2026-04-29 21:07 | 22.61448 | 58.64307 | 32845 ft | 519 kts | 149° |
| 2026-04-29 21:07 | 22.55337 | 58.68458 | 32832 ft | 518 kts | 152° |
| 2026-04-29 21:08 | 22.49138 | 58.72447 | 32842 ft | 518 kts | 152° |
| 2026-04-29 21:08 | 22.42992 | 58.76427 | 32838 ft | 518 kts | 151° |
| 2026-04-29 21:09 | 22.36821 | 58.80467 | 32836 ft | 518 kts | 151° |
| 2026-04-29 21:09 | 22.30660 | 58.84516 | 32829 ft | 518 kts | 151° |
| 2026-04-29 21:10 | 22.24581 | 58.88722 | 32832 ft | 520 kts | 144° |
| 2026-04-29 21:10 | 22.19432 | 58.94246 | 32827 ft | 523 kts | 133° |
| 2026-04-29 21:11 | 22.14743 | 59.00255 | 32820 ft | 524 kts | 131° |
| 2026-04-29 21:11 | 22.10156 | 59.06296 | 32817 ft | 523 kts | 131° |
| 2026-04-29 21:12 | 22.05524 | 59.12349 | 32820 ft | 523 kts | 131° |
| 2026-04-29 21:12 | 22.00860 | 59.18390 | 32808 ft | 523 kts | 131° |
| 2026-04-29 21:13 | 21.96195 | 59.24409 | 32804 ft | 523 kts | 131° |
| 2026-04-29 21:13 | 21.91528 | 59.30425 | 32803 ft | 523 kts | 131° |
| 2026-04-29 21:14 | 21.86890 | 59.36398 | 32794 ft | 523 kts | 131° |
| 2026-04-29 21:14 | 21.82230 | 59.42394 | 32793 ft | 522 kts | 131° |
| 2026-04-29 21:15 | 21.77557 | 59.48400 | 32790 ft | 522 kts | 131° |
| 2026-04-29 21:15 | 21.72886 | 59.54397 | 32789 ft | 522 kts | 131° |
| 2026-04-29 21:16 | 21.68219 | 59.60382 | 32784 ft | 522 kts | 131° |
| 2026-04-29 21:16 | 21.63556 | 59.66356 | 32784 ft | 521 kts | 131° |
| 2026-04-29 21:17 | 21.58910 | 59.72301 | 32786 ft | 521 kts | 131° |
| 2026-04-29 21:17 | 21.54240 | 59.78270 | 32785 ft | 521 kts | 131° |
| 2026-04-29 21:18 | 21.49565 | 59.84215 | 32784 ft | 521 kts | 131° |
| 2026-04-29 21:18 | 21.44910 | 59.90116 | 32788 ft | 520 kts | 131° |
| 2026-04-29 21:19 | 21.40231 | 59.96044 | 32787 ft | 520 kts | 131° |
| 2026-04-29 21:19 | 21.35549 | 60.01974 | 32788 ft | 520 kts | 131° |
| 2026-04-29 21:20 | 21.30869 | 60.07895 | 32791 ft | 520 kts | 131° |
| 2026-04-29 21:20 | 21.26184 | 60.13817 | 32791 ft | 520 kts | 131° |
| 2026-04-29 21:21 | 21.21507 | 60.19733 | 32796 ft | 520 kts | 131° |
| 2026-04-29 21:21 | 21.16851 | 60.25626 | 32795 ft | 520 kts | 131° |
| 2026-04-29 21:22 | 21.12172 | 60.31541 | 32798 ft | 520 kts | 131° |
| 2026-04-29 21:22 | 21.07494 | 60.37449 | 32797 ft | 520 kts | 131° |
| 2026-04-29 21:23 | 21.02809 | 60.43359 | 32797 ft | 520 kts | 131° |
| 2026-04-29 21:23 | 20.98127 | 60.49258 | 32797 ft | 520 kts | 131° |
| 2026-04-29 21:24 | 20.93441 | 60.55159 | 32801 ft | 520 kts | 131° |
| 2026-04-29 21:24 | 20.88786 | 60.61013 | 32798 ft | 520 kts | 131° |
| 2026-04-29 21:25 | 20.84097 | 60.66902 | 32803 ft | 520 kts | 131° |
| 2026-04-29 21:25 | 20.79389 | 60.72810 | 32802 ft | 520 kts | 131° |
| 2026-04-29 21:26 | 20.74698 | 60.78689 | 32800 ft | 520 kts | 131° |
| 2026-04-29 21:26 | 20.70032 | 60.84532 | 32800 ft | 520 kts | 131° |
| 2026-04-29 21:27 | 20.65329 | 60.90416 | 32801 ft | 520 kts | 131° |
| 2026-04-29 21:27 | 20.60850 | 60.96474 | 32802 ft | 521 kts | 125° |
| 2026-04-29 21:28 | 20.56871 | 61.02941 | 32803 ft | 521 kts | 123° |
| 2026-04-29 21:28 | 20.52984 | 61.09477 | 32803 ft | 521 kts | 123° |
| 2026-04-29 21:29 | 20.49126 | 61.15978 | 32802 ft | 521 kts | 123° |
| 2026-04-29 21:29 | 20.45229 | 61.22509 | 32802 ft | 521 kts | 123° |
| 2026-04-29 21:30 | 20.41327 | 61.29026 | 32803 ft | 521 kts | 123° |
| 2026-04-29 21:30 | 20.37418 | 61.35539 | 32802 ft | 521 kts | 123° |
| 2026-04-29 21:31 | 20.33504 | 61.42054 | 32801 ft | 521 kts | 123° |
| 2026-04-29 21:31 | 20.29597 | 61.48551 | 32801 ft | 521 kts | 123° |
| 2026-04-29 21:32 | 20.25685 | 61.55051 | 32804 ft | 521 kts | 123° |
| 2026-04-29 21:32 | 20.21772 | 61.61547 | 32803 ft | 521 kts | 123° |
| 2026-04-29 21:33 | 20.17855 | 61.68042 | 32803 ft | 521 kts | 123° |
| 2026-04-29 21:33 | 20.13958 | 61.74495 | 32804 ft | 521 kts | 123° |
| 2026-04-29 21:34 | 20.10032 | 61.80989 | 32804 ft | 521 kts | 123° |
| 2026-04-29 21:34 | 20.06107 | 61.87474 | 32805 ft | 522 kts | 123° |
| 2026-04-29 21:35 | 20.02170 | 61.93972 | 32805 ft | 521 kts | 123° |
| 2026-04-29 21:35 | 19.98265 | 62.00413 | 32806 ft | 521 kts | 123° |
| 2026-04-29 21:36 | 19.94332 | 62.06889 | 32805 ft | 521 kts | 123° |
| 2026-04-29 21:36 | 19.90402 | 62.13354 | 32804 ft | 520 kts | 123° |
| 2026-04-29 21:37 | 19.86468 | 62.19819 | 32807 ft | 521 kts | 123° |
| 2026-04-29 21:37 | 19.82536 | 62.26273 | 32809 ft | 521 kts | 123° |
| 2026-04-29 21:38 | 19.78592 | 62.32739 | 32804 ft | 521 kts | 123° |
| 2026-04-29 21:38 | 19.74683 | 62.39142 | 32808 ft | 520 kts | 123° |
| 2026-04-29 21:39 | 19.70739 | 62.45596 | 32806 ft | 520 kts | 123° |
| 2026-04-29 21:39 | 19.66804 | 62.52028 | 32809 ft | 520 kts | 123° |
| 2026-04-29 21:40 | 19.62859 | 62.58468 | 32808 ft | 520 kts | 123° |
| 2026-04-29 21:40 | 19.58912 | 62.64906 | 32811 ft | 520 kts | 123° |
| 2026-04-29 21:41 | 19.54963 | 62.71338 | 32811 ft | 520 kts | 123° |
| 2026-04-29 21:41 | 19.51018 | 62.77759 | 32809 ft | 520 kts | 123° |
| 2026-04-29 21:42 | 19.47094 | 62.84139 | 32814 ft | 520 kts | 123° |
| 2026-04-29 21:42 | 19.43782 | 62.89516 | 32814 ft | 520 kts | 123° |
| 2026-04-29 21:43 | 19.39182 | 62.96980 | 32818 ft | 520 kts | 123° |
| 2026-04-29 21:43 | 19.35223 | 63.03396 | 32813 ft | 520 kts | 123° |
| 2026-04-29 21:44 | 19.31261 | 63.09809 | 32815 ft | 520 kts | 123° |
| 2026-04-29 21:44 | 19.27301 | 63.16215 | 32816 ft | 520 kts | 123° |
| 2026-04-29 21:45 | 19.23362 | 63.22578 | 32816 ft | 520 kts | 123° |
| 2026-04-29 21:45 | 19.19394 | 63.28982 | 32816 ft | 520 kts | 123° |
| 2026-04-29 21:46 | 19.15417 | 63.35393 | 32816 ft | 520 kts | 123° |
| 2026-04-29 21:46 | 19.11444 | 63.41791 | 32817 ft | 520 kts | 123° |
| 2026-04-29 21:47 | 19.07473 | 63.48179 | 32819 ft | 520 kts | 123° |
| 2026-04-29 21:47 | 19.03520 | 63.54533 | 32817 ft | 520 kts | 123° |
| 2026-04-29 21:48 | 18.99541 | 63.60923 | 32815 ft | 520 kts | 123° |
| 2026-04-29 21:48 | 18.95554 | 63.67322 | 32818 ft | 520 kts | 123° |
| 2026-04-29 21:49 | 18.91568 | 63.73710 | 32821 ft | 520 kts | 123° |
| 2026-04-29 21:49 | 18.87587 | 63.80085 | 32822 ft | 520 kts | 123° |
| 2026-04-29 21:50 | 18.83601 | 63.86464 | 32825 ft | 520 kts | 123° |
| 2026-04-29 21:50 | 18.79609 | 63.92844 | 32824 ft | 520 kts | 123° |
| 2026-04-29 21:51 | 18.75640 | 63.99182 | 32820 ft | 520 kts | 123° |
| 2026-04-29 21:51 | 18.69647 | 64.08738 | 32821 ft | 520 kts | 123° |
| 2026-04-29 21:52 | 18.65657 | 64.15094 | 32820 ft | 520 kts | 123° |
| 2026-04-29 21:52 | 18.61658 | 64.21455 | 32820 ft | 520 kts | 123° |
| 2026-04-29 21:53 | 18.58333 | 64.26739 | 32820 ft | 519 kts | 123° |
| 2026-04-29 21:53 | 18.53684 | 64.34119 | 32823 ft | 519 kts | 123° |
| 2026-04-29 21:54 | 18.50359 | 64.39394 | 32826 ft | 519 kts | 123° |
| 2026-04-29 21:54 | 18.46358 | 64.45736 | 32824 ft | 519 kts | 123° |
| 2026-04-29 21:55 | 18.42358 | 64.52072 | 32826 ft | 519 kts | 123° |
| 2026-04-29 21:55 | 18.38355 | 64.58403 | 32825 ft | 519 kts | 123° |
| 2026-04-29 21:56 | 18.34353 | 64.64725 | 32826 ft | 519 kts | 122° |
| 2026-04-29 21:56 | 18.30369 | 64.71014 | 32825 ft | 518 kts | 123° |
| 2026-04-29 21:57 | 18.26365 | 64.77327 | 32824 ft | 518 kts | 122° |
| 2026-04-29 21:57 | 18.22352 | 64.83651 | 32825 ft | 518 kts | 122° |
| 2026-04-29 21:58 | 18.18346 | 64.89957 | 32827 ft | 518 kts | 122° |
| 2026-04-29 21:58 | 18.14369 | 64.96211 | 32827 ft | 518 kts | 122° |
| 2026-04-29 21:59 | 18.10357 | 65.02514 | 32828 ft | 518 kts | 123° |
| 2026-04-29 21:59 | 18.06352 | 65.08800 | 32826 ft | 518 kts | 123° |
| 2026-04-29 22:00 | 18.02340 | 65.15094 | 32828 ft | 518 kts | 122° |
| 2026-04-29 22:00 | 17.98316 | 65.21396 | 32830 ft | 518 kts | 123° |
| 2026-04-29 22:01 | 17.94324 | 65.27643 | 32825 ft | 518 kts | 123° |
| 2026-04-29 22:01 | 17.90304 | 65.33927 | 32825 ft | 518 kts | 123° |
| 2026-04-29 22:02 | 17.86282 | 65.40210 | 32827 ft | 518 kts | 123° |
| 2026-04-29 22:02 | 17.82260 | 65.46485 | 32829 ft | 518 kts | 123° |
| 2026-04-29 22:03 | 17.78232 | 65.52764 | 32827 ft | 518 kts | 123° |
| 2026-04-29 22:03 | 17.74201 | 65.59042 | 32829 ft | 519 kts | 123° |
| 2026-04-29 22:04 | 17.70193 | 65.65279 | 32831 ft | 519 kts | 123° |
| 2026-04-29 22:04 | 17.66153 | 65.71560 | 32829 ft | 519 kts | 123° |
| 2026-04-29 22:05 | 17.62109 | 65.77841 | 32831 ft | 519 kts | 123° |
| 2026-04-29 22:06 | 17.56173 | 65.87353 | 32831 ft | 519 kts | 122° |
| 2026-04-29 22:06 | 17.52300 | 65.93695 | 32831 ft | 520 kts | 122° |
| 2026-04-29 22:07 | 17.48380 | 66.00076 | 32832 ft | 520 kts | 122° |
| 2026-04-29 22:07 | 17.44450 | 66.06441 | 32829 ft | 520 kts | 122° |
| 2026-04-29 22:08 | 17.40513 | 66.12803 | 32831 ft | 520 kts | 122° |
| 2026-04-29 22:08 | 17.36569 | 66.19170 | 32830 ft | 521 kts | 122° |
| 2026-04-29 22:09 | 17.32645 | 66.25499 | 32828 ft | 521 kts | 122° |
| 2026-04-29 22:09 | 17.28693 | 66.31870 | 32829 ft | 521 kts | 122° |
| 2026-04-29 22:10 | 17.24735 | 66.38245 | 32831 ft | 521 kts | 122° |
| 2026-04-29 22:10 | 17.20782 | 66.44605 | 32831 ft | 522 kts | 122° |
| 2026-04-29 22:11 | 17.16845 | 66.50934 | 32830 ft | 522 kts | 122° |
| 2026-04-29 22:11 | 17.12884 | 66.57294 | 32830 ft | 522 kts | 122° |
| 2026-04-29 22:12 | 17.08919 | 66.63656 | 32832 ft | 522 kts | 122° |
| 2026-04-29 22:12 | 17.04934 | 66.70043 | 32830 ft | 523 kts | 122° |
| 2026-04-29 22:13 | 17.00958 | 66.76411 | 32830 ft | 523 kts | 122° |
| 2026-04-29 22:13 | 16.96980 | 66.82775 | 32832 ft | 523 kts | 122° |
| 2026-04-29 22:14 | 16.93026 | 66.89097 | 32831 ft | 523 kts | 122° |
| 2026-04-29 22:14 | 16.89041 | 66.95461 | 32829 ft | 523 kts | 122° |
| 2026-04-29 22:15 | 16.85051 | 67.01827 | 32833 ft | 523 kts | 122° |
| 2026-04-29 22:15 | 16.81056 | 67.08195 | 32829 ft | 523 kts | 122° |
| 2026-04-29 22:16 | 16.77091 | 67.14511 | 32833 ft | 523 kts | 122° |
| 2026-04-29 22:16 | 16.73099 | 67.20863 | 32835 ft | 524 kts | 122° |
| 2026-04-29 22:17 | 16.69097 | 67.27226 | 32831 ft | 524 kts | 123° |
| 2026-04-29 22:17 | 16.65098 | 67.33578 | 32834 ft | 524 kts | 123° |
| 2026-04-29 22:18 | 16.61090 | 67.39939 | 32835 ft | 524 kts | 123° |
| 2026-04-29 22:18 | 16.57083 | 67.46292 | 32834 ft | 524 kts | 123° |
| 2026-04-29 22:19 | 16.53069 | 67.52650 | 32834 ft | 524 kts | 123° |
| 2026-04-29 22:19 | 16.49085 | 67.58957 | 32835 ft | 524 kts | 123° |
| 2026-04-29 22:20 | 16.45071 | 67.65303 | 32834 ft | 524 kts | 123° |
| 2026-04-29 22:20 | 16.41051 | 67.71654 | 32835 ft | 524 kts | 123° |
| 2026-04-29 22:21 | 16.37026 | 67.78008 | 32836 ft | 525 kts | 123° |
| 2026-04-29 22:21 | 16.32999 | 67.84359 | 32838 ft | 525 kts | 123° |
| 2026-04-29 22:22 | 16.28999 | 67.90662 | 32836 ft | 525 kts | 123° |
| 2026-04-29 22:22 | 16.24977 | 67.97004 | 32835 ft | 525 kts | 123° |
| 2026-04-29 22:23 | 16.20974 | 68.03369 | 32836 ft | 525 kts | 123° |
| 2026-04-29 22:23 | 16.16975 | 68.09738 | 32841 ft | 525 kts | 123° |
| 2026-04-29 22:24 | 16.12969 | 68.16103 | 32838 ft | 526 kts | 123° |
| 2026-04-29 22:24 | 16.08961 | 68.22462 | 32836 ft | 526 kts | 123° |
| 2026-04-29 22:25 | 16.04944 | 68.28828 | 32836 ft | 526 kts | 123° |
| 2026-04-29 22:25 | 16.00926 | 68.35190 | 32836 ft | 526 kts | 123° |
| 2026-04-29 22:26 | 15.96932 | 68.41508 | 32838 ft | 526 kts | 123° |
| 2026-04-29 22:26 | 15.92910 | 68.47865 | 32837 ft | 526 kts | 123° |
| 2026-04-29 22:27 | 15.88884 | 68.54222 | 32840 ft | 527 kts | 123° |
| 2026-04-29 22:27 | 15.84849 | 68.60590 | 32837 ft | 527 kts | 123° |
| 2026-04-29 22:28 | 15.80820 | 68.66942 | 32840 ft | 527 kts | 123° |
| 2026-04-29 22:28 | 15.76779 | 68.73307 | 32838 ft | 527 kts | 123° |
| 2026-04-29 22:29 | 15.73422 | 68.78592 | 32841 ft | 527 kts | 123° |
| 2026-04-29 22:29 | 15.68720 | 68.85986 | 32841 ft | 527 kts | 123° |
| 2026-04-29 22:30 | 15.64672 | 68.92346 | 32841 ft | 527 kts | 123° |
| 2026-04-29 22:30 | 15.60620 | 68.98706 | 32838 ft | 528 kts | 123° |
| 2026-04-29 22:31 | 15.56592 | 69.05024 | 32842 ft | 528 kts | 123° |
| 2026-04-29 22:31 | 15.52526 | 69.11397 | 32843 ft | 528 kts | 123° |
| 2026-04-29 22:32 | 15.48466 | 69.17754 | 32841 ft | 528 kts | 123° |
| 2026-04-29 22:32 | 15.44410 | 69.24101 | 32843 ft | 528 kts | 123° |
| 2026-04-29 22:33 | 15.40349 | 69.30448 | 32841 ft | 528 kts | 123° |
| 2026-04-29 22:33 | 15.36310 | 69.36757 | 32845 ft | 529 kts | 123° |
| 2026-04-29 22:34 | 15.32242 | 69.43106 | 32842 ft | 529 kts | 123° |
| 2026-04-29 22:34 | 15.28167 | 69.49461 | 32841 ft | 529 kts | 123° |
| 2026-04-29 22:35 | 15.24087 | 69.55817 | 32844 ft | 529 kts | 123° |
| 2026-04-29 22:35 | 15.20010 | 69.62165 | 32841 ft | 529 kts | 123° |
| 2026-04-29 22:36 | 15.15957 | 69.68469 | 32840 ft | 529 kts | 123° |
| 2026-04-29 22:36 | 15.11874 | 69.74815 | 32841 ft | 529 kts | 123° |
| 2026-04-29 22:37 | 15.07819 | 69.81177 | 32843 ft | 529 kts | 123° |
| 2026-04-29 22:37 | 15.03783 | 69.87553 | 32843 ft | 529 kts | 123° |
| 2026-04-29 22:38 | 14.99751 | 69.93915 | 32841 ft | 529 kts | 123° |
| 2026-04-29 22:38 | 14.95707 | 70.00281 | 32845 ft | 529 kts | 123° |
| 2026-04-29 22:39 | 14.91666 | 70.06632 | 32840 ft | 529 kts | 123° |
| 2026-04-29 22:39 | 14.87623 | 70.12983 | 32844 ft | 529 kts | 123° |
| 2026-04-29 22:40 | 14.84262 | 70.18257 | 32843 ft | 529 kts | 123° |
| 2026-04-29 22:40 | 14.79555 | 70.25640 | 32843 ft | 529 kts | 123° |
| 2026-04-29 22:41 | 14.75504 | 70.31987 | 32841 ft | 529 kts | 123° |
| 2026-04-29 22:41 | 14.71452 | 70.38332 | 32841 ft | 529 kts | 123° |
| 2026-04-29 22:42 | 14.67394 | 70.44680 | 32848 ft | 529 kts | 123° |
| 2026-04-29 22:42 | 14.64021 | 70.49953 | 32848 ft | 529 kts | 124° |
| 2026-04-29 22:43 | 14.59957 | 70.56302 | 32846 ft | 529 kts | 124° |
| 2026-04-29 22:43 | 14.55890 | 70.62650 | 32844 ft | 530 kts | 124° |
| 2026-04-29 22:44 | 14.51817 | 70.69003 | 32847 ft | 529 kts | 124° |
| 2026-04-29 22:44 | 14.47774 | 70.75303 | 32845 ft | 530 kts | 124° |
| 2026-04-29 22:45 | 14.43701 | 70.81647 | 32846 ft | 529 kts | 124° |
| 2026-04-29 22:45 | 14.38942 | 70.89052 | 32844 ft | 529 kts | 124° |
| 2026-04-29 22:46 | 14.35553 | 70.94322 | 32844 ft | 529 kts | 124° |
| 2026-04-29 22:46 | 14.31511 | 71.00668 | 32843 ft | 529 kts | 123° |
| 2026-04-29 22:47 | 14.27500 | 71.07037 | 32850 ft | 529 kts | 123° |
| 2026-04-29 22:47 | 14.23511 | 71.13364 | 32848 ft | 529 kts | 123° |
| 2026-04-29 22:48 | 14.19486 | 71.19732 | 32849 ft | 529 kts | 123° |
| 2026-04-29 22:48 | 14.15454 | 71.26090 | 32855 ft | 525 kts | 122° |
| 2026-04-29 22:49 | 14.11511 | 71.32305 | 32852 ft | 517 kts | 122° |
| 2026-04-29 22:49 | 14.07583 | 71.38507 | 32852 ft | 516 kts | 122° |
| 2026-04-29 22:50 | 14.03658 | 71.44698 | 32852 ft | 517 kts | 122° |
| 2026-04-29 22:50 | 13.99723 | 71.50894 | 32850 ft | 517 kts | 122° |
| 2026-04-29 22:51 | 13.95783 | 71.57093 | 32852 ft | 517 kts | 122° |
| 2026-04-29 22:51 | 13.89902 | 71.66338 | 32850 ft | 517 kts | 122° |
| 2026-04-29 22:52 | 13.85959 | 71.72530 | 32845 ft | 517 kts | 122° |
| 2026-04-29 22:52 | 13.82013 | 71.78723 | 32844 ft | 517 kts | 122° |
| 2026-04-29 22:53 | 13.78062 | 71.84918 | 32845 ft | 517 kts | 122° |
| 2026-04-29 22:53 | 13.74135 | 71.91072 | 32848 ft | 517 kts | 122° |
| 2026-04-29 22:54 | 13.70181 | 71.97263 | 32844 ft | 517 kts | 122° |
| 2026-04-29 22:54 | 13.65889 | 72.03215 | 32846 ft | 518 kts | 128° |
| 2026-04-29 22:55 | 13.61361 | 72.08996 | 32842 ft | 518 kts | 128° |
| 2026-04-29 22:55 | 13.56828 | 72.14703 | 32843 ft | 518 kts | 129° |
| 2026-04-29 22:56 | 13.52271 | 72.20445 | 32842 ft | 518 kts | 129° |
| 2026-04-29 22:56 | 13.47709 | 72.26203 | 32843 ft | 519 kts | 129° |
| 2026-04-29 22:57 | 13.43156 | 72.31953 | 32843 ft | 519 kts | 129° |
| 2026-04-29 22:57 | 13.38598 | 72.37706 | 32841 ft | 518 kts | 129° |
| 2026-04-29 22:58 | 13.34047 | 72.43447 | 32838 ft | 518 kts | 129° |
| 2026-04-29 22:58 | 13.29523 | 72.49148 | 32839 ft | 518 kts | 129° |
| 2026-04-29 22:59 | 13.24974 | 72.54877 | 32837 ft | 517 kts | 129° |
| 2026-04-29 22:59 | 13.20421 | 72.60608 | 32838 ft | 517 kts | 129° |
| 2026-04-29 23:00 | 13.15867 | 72.66336 | 32841 ft | 517 kts | 129° |
| 2026-04-29 23:00 | 13.11315 | 72.72058 | 32842 ft | 517 kts | 129° |
| 2026-04-29 23:01 | 13.06788 | 72.77745 | 32841 ft | 517 kts | 129° |
| 2026-04-29 23:01 | 13.02237 | 72.83459 | 32842 ft | 517 kts | 129° |
| 2026-04-29 23:02 | 12.97683 | 72.89173 | 32840 ft | 517 kts | 129° |
| 2026-04-29 23:02 | 12.93127 | 72.94883 | 32840 ft | 517 kts | 129° |
| 2026-04-29 23:03 | 12.88599 | 73.00557 | 32843 ft | 517 kts | 129° |
| 2026-04-29 23:03 | 12.84035 | 73.06272 | 32841 ft | 517 kts | 129° |
| 2026-04-29 23:04 | 12.79474 | 73.11980 | 32844 ft | 517 kts | 129° |
| 2026-04-29 23:04 | 12.74913 | 73.17683 | 32842 ft | 517 kts | 129° |
| 2026-04-29 23:05 | 12.70352 | 73.23384 | 32844 ft | 517 kts | 130° |
| 2026-04-29 23:05 | 12.65787 | 73.29085 | 32843 ft | 517 kts | 130° |
| 2026-04-29 23:06 | 12.61226 | 73.34779 | 32843 ft | 517 kts | 130° |
| 2026-04-29 23:06 | 12.56688 | 73.40439 | 32841 ft | 517 kts | 130° |
| 2026-04-29 23:07 | 12.52117 | 73.46138 | 32843 ft | 518 kts | 130° |
| 2026-04-29 23:07 | 12.47541 | 73.51840 | 32843 ft | 518 kts | 130° |
| 2026-04-29 23:08 | 12.42961 | 73.57542 | 32844 ft | 519 kts | 130° |
| 2026-04-29 23:08 | 12.38378 | 73.63246 | 32841 ft | 519 kts | 130° |
| 2026-04-29 23:09 | 12.33781 | 73.68962 | 32844 ft | 519 kts | 130° |
| 2026-04-29 23:09 | 12.29191 | 73.74667 | 32846 ft | 519 kts | 130° |
| 2026-04-29 23:10 | 12.24620 | 73.80345 | 32846 ft | 519 kts | 130° |
| 2026-04-29 23:10 | 12.20022 | 73.86052 | 32848 ft | 520 kts | 130° |
| 2026-04-29 23:11 | 12.15424 | 73.91757 | 32848 ft | 520 kts | 130° |
| 2026-04-29 23:11 | 12.10821 | 73.97465 | 32848 ft | 520 kts | 130° |
| 2026-04-29 23:12 | 12.06216 | 74.03171 | 32853 ft | 520 kts | 130° |
| 2026-04-29 23:12 | 12.01646 | 74.08830 | 32850 ft | 520 kts | 130° |
| 2026-04-29 23:13 | 11.97041 | 74.14530 | 32852 ft | 519 kts | 130° |
| 2026-04-29 23:13 | 11.92440 | 74.20222 | 32853 ft | 519 kts | 130° |
| 2026-04-29 23:14 | 11.87835 | 74.25915 | 32853 ft | 519 kts | 130° |
| 2026-04-29 23:14 | 11.83258 | 74.31569 | 32856 ft | 519 kts | 130° |
| 2026-04-29 23:15 | 11.78657 | 74.37251 | 32863 ft | 519 kts | 130° |
| 2026-04-29 23:15 | 11.74050 | 74.42936 | 32864 ft | 519 kts | 130° |
| 2026-04-29 23:16 | 11.69469 | 74.48587 | 32862 ft | 519 kts | 130° |
| 2026-04-29 23:16 | 11.64847 | 74.54285 | 32866 ft | 519 kts | 130° |
| 2026-04-29 23:17 | 11.60241 | 74.59959 | 32865 ft | 518 kts | 130° |
| 2026-04-29 23:17 | 11.55672 | 74.65585 | 32867 ft | 518 kts | 130° |
| 2026-04-29 23:18 | 11.51071 | 74.71246 | 32863 ft | 518 kts | 130° |
| 2026-04-29 23:18 | 11.46470 | 74.76904 | 32865 ft | 517 kts | 130° |
| 2026-04-29 23:19 | 11.41881 | 74.82546 | 32864 ft | 516 kts | 130° |
| 2026-04-29 23:19 | 11.37292 | 74.88184 | 32866 ft | 516 kts | 130° |
| 2026-04-29 23:20 | 11.32712 | 74.93810 | 32865 ft | 515 kts | 130° |
| 2026-04-29 23:20 | 11.28135 | 74.99425 | 32863 ft | 515 kts | 130° |
| 2026-04-29 23:21 | 11.23582 | 75.05008 | 32864 ft | 515 kts | 130° |
| 2026-04-29 23:21 | 11.19002 | 75.10621 | 32855 ft | 515 kts | 130° |
| 2026-04-29 23:22 | 11.14418 | 75.16237 | 32856 ft | 515 kts | 130° |
| 2026-04-29 23:22 | 11.09840 | 75.21843 | 32860 ft | 515 kts | 130° |
| 2026-04-29 23:23 | 11.05249 | 75.27461 | 32856 ft | 516 kts | 130° |
| 2026-04-29 23:23 | 11.00682 | 75.33046 | 32859 ft | 516 kts | 130° |
| 2026-04-29 23:24 | 10.96081 | 75.38672 | 32860 ft | 516 kts | 130° |
| 2026-04-29 23:24 | 10.91482 | 75.44291 | 32858 ft | 517 kts | 130° |
| 2026-04-29 23:25 | 10.86873 | 75.49920 | 32861 ft | 517 kts | 130° |
| 2026-04-29 23:25 | 10.82268 | 75.55540 | 32862 ft | 517 kts | 130° |
| 2026-04-29 23:26 | 10.77677 | 75.61140 | 32857 ft | 517 kts | 130° |
| 2026-04-29 23:26 | 10.73076 | 75.66750 | 32860 ft | 517 kts | 130° |
| 2026-04-29 23:27 | 10.68471 | 75.72361 | 32861 ft | 517 kts | 130° |
| 2026-04-29 23:27 | 10.63849 | 75.77990 | 32860 ft | 517 kts | 130° |
| 2026-04-29 23:28 | 10.59241 | 75.83600 | 32860 ft | 517 kts | 130° |
| 2026-04-29 23:28 | 10.54631 | 75.89209 | 32861 ft | 517 kts | 130° |
| 2026-04-29 23:29 | 10.50796 | 75.93872 | 32862 ft | 517 kts | 130° |
| 2026-04-29 23:29 | 10.46193 | 75.99468 | 32864 ft | 516 kts | 130° |
| 2026-04-29 23:30 | 10.41585 | 76.05066 | 32862 ft | 516 kts | 130° |
| 2026-04-29 23:30 | 10.36978 | 76.10661 | 32865 ft | 515 kts | 130° |
| 2026-04-29 23:31 | 10.32380 | 76.16240 | 32861 ft | 515 kts | 130° |
| 2026-04-29 23:31 | 10.27790 | 76.21808 | 32862 ft | 514 kts | 130° |
| 2026-04-29 23:32 | 10.23199 | 76.27375 | 32859 ft | 513 kts | 130° |
| 2026-04-29 23:32 | 10.18622 | 76.32922 | 32859 ft | 513 kts | 130° |
| 2026-04-29 23:33 | 10.14067 | 76.38440 | 32857 ft | 512 kts | 130° |
| 2026-04-29 23:33 | 10.09475 | 76.43975 | 32857 ft | 512 kts | 130° |
| 2026-04-29 23:34 | 10.04888 | 76.49487 | 32858 ft | 511 kts | 130° |
| 2026-04-29 23:34 | 10.00300 | 76.55000 | 32862 ft | 511 kts | 130° |
| 2026-04-29 23:35 | 9.95716 | 76.60509 | 32868 ft | 510 kts | 130° |
| 2026-04-29 23:35 | 9.91131 | 76.66020 | 32875 ft | 510 kts | 130° |
| 2026-04-29 23:36 | 9.86556 | 76.71514 | 32882 ft | 509 kts | 130° |
| 2026-04-29 23:36 | 9.82015 | 76.76967 | 32885 ft | 509 kts | 130° |
| 2026-04-29 23:37 | 9.77434 | 76.82463 | 32888 ft | 509 kts | 130° |
| 2026-04-29 23:37 | 9.72868 | 76.87939 | 32893 ft | 509 kts | 130° |
| 2026-04-29 23:38 | 9.68291 | 76.93428 | 32897 ft | 509 kts | 130° |
| 2026-04-29 23:38 | 9.63715 | 76.98911 | 32900 ft | 509 kts | 130° |
| 2026-04-29 23:39 | 9.59137 | 77.04394 | 32899 ft | 510 kts | 130° |
| 2026-04-29 23:39 | 9.54553 | 77.09881 | 32904 ft | 510 kts | 130° |
| 2026-04-29 23:40 | 9.49969 | 77.15366 | 32902 ft | 510 kts | 130° |
| 2026-04-29 23:40 | 9.45414 | 77.20816 | 32901 ft | 510 kts | 131° |
| 2026-04-29 23:41 | 9.40825 | 77.26302 | 32888 ft | 510 kts | 131° |
| 2026-04-29 23:41 | 9.36233 | 77.31789 | 32883 ft | 510 kts | 131° |
| 2026-04-29 23:42 | 9.31643 | 77.37273 | 32878 ft | 510 kts | 131° |
| 2026-04-29 23:42 | 9.27056 | 77.42749 | 32870 ft | 510 kts | 131° |
| 2026-04-29 23:43 | 9.22459 | 77.48235 | 32863 ft | 510 kts | 131° |
| 2026-04-29 23:43 | 9.17855 | 77.53729 | 32853 ft | 510 kts | 130° |
| 2026-04-29 23:44 | 9.13263 | 77.59207 | 32841 ft | 510 kts | 131° |
| 2026-04-29 23:44 | 9.08700 | 77.64643 | 32841 ft | 510 kts | 130° |
| 2026-04-29 23:45 | 9.04102 | 77.70117 | 32832 ft | 509 kts | 130° |
| 2026-04-29 23:45 | 8.99512 | 77.75581 | 32837 ft | 509 kts | 130° |
| 2026-04-29 23:46 | 8.94914 | 77.81055 | 32836 ft | 509 kts | 130° |
| 2026-04-29 23:46 | 8.90329 | 77.86510 | 32835 ft | 509 kts | 130° |
| 2026-04-29 23:47 | 8.85750 | 77.91955 | 32834 ft | 509 kts | 130° |
| 2026-04-29 23:47 | 8.81191 | 77.97375 | 32835 ft | 509 kts | 130° |
| 2026-04-29 23:48 | 8.76605 | 78.02825 | 32836 ft | 509 kts | 130° |
| 2026-04-29 23:48 | 8.72016 | 78.08275 | 32837 ft | 509 kts | 130° |
| 2026-04-29 23:49 | 8.67447 | 78.13699 | 32838 ft | 509 kts | 130° |
| 2026-04-29 23:49 | 8.62853 | 78.19152 | 32837 ft | 509 kts | 130° |
| 2026-04-29 23:50 | 8.58260 | 78.24600 | 32832 ft | 510 kts | 130° |
| 2026-04-29 23:51 | 8.51356 | 78.32787 | 32842 ft | 510 kts | 130° |
| 2026-04-29 23:51 | 8.46755 | 78.38240 | 32839 ft | 509 kts | 130° |
| 2026-04-29 23:52 | 8.42157 | 78.43687 | 32841 ft | 509 kts | 130° |
| 2026-04-29 23:52 | 8.37561 | 78.49129 | 32841 ft | 509 kts | 130° |
| 2026-04-29 23:53 | 8.32997 | 78.54530 | 32845 ft | 508 kts | 130° |
| 2026-04-29 23:53 | 8.28412 | 78.59956 | 32841 ft | 507 kts | 131° |
| 2026-04-29 23:54 | 8.23744 | 78.65318 | 32843 ft | 507 kts | 133° |
| 2026-04-29 23:54 | 8.19002 | 78.70593 | 32845 ft | 506 kts | 133° |
| 2026-04-29 23:55 | 8.14277 | 78.75862 | 32846 ft | 505 kts | 133° |
| 2026-04-29 23:55 | 8.09579 | 78.81128 | 32846 ft | 504 kts | 132° |
| 2026-04-29 23:56 | 8.04926 | 78.86357 | 32848 ft | 503 kts | 132° |
| 2026-04-29 23:56 | 8.00252 | 78.91611 | 32847 ft | 502 kts | 132° |
| 2026-04-29 23:57 | 7.95586 | 78.96853 | 32849 ft | 501 kts | 132° |
| 2026-04-29 23:57 | 7.90932 | 79.02079 | 32845 ft | 500 kts | 132° |
| 2026-04-29 23:58 | 7.86292 | 79.07285 | 32845 ft | 499 kts | 132° |
| 2026-04-29 23:58 | 7.81656 | 79.12485 | 32842 ft | 498 kts | 132° |
| 2026-04-29 23:59 | 7.77046 | 79.17654 | 32844 ft | 499 kts | 132° |
| 2026-04-29 23:59 | 7.72405 | 79.22855 | 32841 ft | 499 kts | 132° |
| 2026-04-30 00:00 | 7.67772 | 79.28077 | 32839 ft | 500 kts | 132° |
| 2026-04-30 00:00 | 7.63157 | 79.33346 | 32845 ft | 501 kts | 131° |
| 2026-04-30 00:01 | 7.58548 | 79.38613 | 32849 ft | 501 kts | 131° |
| 2026-04-30 00:01 | 7.53947 | 79.43857 | 32842 ft | 502 kts | 132° |
| 2026-04-30 00:02 | 7.49309 | 79.49135 | 32843 ft | 503 kts | 132° |
| 2026-04-30 00:02 | 7.44658 | 79.54425 | 32844 ft | 504 kts | 132° |
| 2026-04-30 00:03 | 7.40008 | 79.59712 | 32840 ft | 504 kts | 132° |
| 2026-04-30 00:03 | 7.35362 | 79.64993 | 32835 ft | 504 kts | 132° |
| 2026-04-30 00:04 | 7.30715 | 79.70274 | 32835 ft | 503 kts | 132° |
| 2026-04-30 00:04 | 7.26069 | 79.75553 | 32831 ft | 503 kts | 132° |
| 2026-04-30 00:05 | 7.21453 | 79.80795 | 32830 ft | 503 kts | 132° |
| 2026-04-30 00:05 | 7.16805 | 79.86071 | 32830 ft | 504 kts | 131° |
| 2026-04-30 00:06 | 7.11977 | 79.91189 | 32828 ft | 504 kts | 136° |
| 2026-04-30 00:06 | 7.06827 | 79.95985 | 32830 ft | 504 kts | 137° |
| 2026-04-30 00:07 | 7.01669 | 80.00776 | 32838 ft | 504 kts | 137° |
| 2026-04-30 00:07 | 6.96568 | 80.05620 | 32842 ft | 503 kts | 136° |
| 2026-04-30 00:08 | 6.91531 | 80.10452 | 32853 ft | 503 kts | 136° |
| 2026-04-30 00:08 | 6.86469 | 80.15318 | 32860 ft | 503 kts | 136° |
| 2026-04-30 00:09 | 6.81408 | 80.20176 | 32864 ft | 502 kts | 136° |
| 2026-04-30 00:09 | 6.76353 | 80.25025 | 32869 ft | 502 kts | 137° |
| 2026-04-30 00:10 | 6.71299 | 80.29868 | 32876 ft | 501 kts | 137° |
| 2026-04-30 00:10 | 6.66252 | 80.34705 | 32878 ft | 501 kts | 137° |
| 2026-04-30 00:11 | 6.61204 | 80.39542 | 32883 ft | 501 kts | 137° |
| 2026-04-30 00:11 | 6.56155 | 80.44379 | 32887 ft | 501 kts | 137° |
| 2026-04-30 00:12 | 6.51097 | 80.49222 | 32885 ft | 502 kts | 137° |
| 2026-04-30 00:12 | 6.46055 | 80.54047 | 32887 ft | 502 kts | 137° |
| 2026-04-30 00:13 | 6.40947 | 80.58837 | 33074 ft | 500 kts | 141° |
| 2026-04-30 00:13 | 6.38244 | 80.61028 | 33529 ft | 496 kts | 142° |
| 2026-04-30 00:13 | 6.35580 | 80.63140 | 33920 ft | 493 kts | 142° |
| 2026-04-30 00:13 | 6.32878 | 80.65253 | 34174 ft | 492 kts | 142° |
| 2026-04-30 00:14 | 6.30169 | 80.67356 | 34387 ft | 492 kts | 143° |
| 2026-04-30 00:14 | 6.27456 | 80.69457 | 34606 ft | 492 kts | 143° |
| 2026-04-30 00:14 | 6.24743 | 80.71557 | 34806 ft | 492 kts | 142° |
| 2026-04-30 00:15 | 6.19279 | 80.75792 | 34872 ft | 499 kts | 142° |
| 2026-04-30 00:15 | 6.13788 | 80.80054 | 34874 ft | 498 kts | 142° |
| 2026-04-30 00:16 | 6.08297 | 80.84317 | 34873 ft | 498 kts | 142° |
| 2026-04-30 00:16 | 6.02868 | 80.88571 | 34870 ft | 498 kts | 141° |
| 2026-04-30 00:17 | 5.97639 | 80.93137 | 34867 ft | 498 kts | 139° |
| 2026-04-30 00:17 | 5.92476 | 80.97798 | 34867 ft | 498 kts | 139° |
| 2026-04-30 00:18 | 5.88164 | 81.01639 | 34865 ft | 498 kts | 139° |
| 2026-04-30 00:18 | 5.82949 | 81.06229 | 34867 ft | 498 kts | 139° |
| 2026-04-30 00:19 | 5.77730 | 81.10800 | 34869 ft | 498 kts | 139° |
| 2026-04-30 00:19 | 5.72509 | 81.15371 | 34868 ft | 497 kts | 139° |
| 2026-04-30 00:20 | 5.67296 | 81.19937 | 34867 ft | 497 kts | 139° |
| 2026-04-30 00:20 | 5.62080 | 81.24506 | 34869 ft | 497 kts | 139° |
| 2026-04-30 00:21 | 5.56871 | 81.29067 | 34864 ft | 497 kts | 139° |
| 2026-04-30 00:21 | 5.51691 | 81.33601 | 34863 ft | 497 kts | 139° |
| 2026-04-30 00:22 | 5.46479 | 81.38163 | 34864 ft | 497 kts | 139° |
| 2026-04-30 00:22 | 5.41277 | 81.42715 | 34864 ft | 496 kts | 139° |
| 2026-04-30 00:23 | 5.36066 | 81.47274 | 34865 ft | 496 kts | 139° |
| 2026-04-30 00:23 | 5.30855 | 81.51832 | 34868 ft | 496 kts | 139° |
| 2026-04-30 00:24 | 5.25690 | 81.56348 | 34867 ft | 495 kts | 139° |
| 2026-04-30 00:24 | 5.20495 | 81.60889 | 34866 ft | 495 kts | 139° |
| 2026-04-30 00:25 | 5.15307 | 81.65423 | 34867 ft | 495 kts | 139° |
| 2026-04-30 00:25 | 5.10116 | 81.69959 | 34868 ft | 495 kts | 139° |
| 2026-04-30 00:26 | 5.04928 | 81.74492 | 34869 ft | 494 kts | 139° |
| 2026-04-30 00:26 | 4.99742 | 81.79022 | 34867 ft | 494 kts | 139° |
| 2026-04-30 00:27 | 4.94557 | 81.83550 | 34871 ft | 494 kts | 139° |
| 2026-04-30 00:27 | 4.89378 | 81.88071 | 34870 ft | 494 kts | 139° |
| 2026-04-30 00:28 | 4.84201 | 81.92591 | 34870 ft | 494 kts | 139° |
| 2026-04-30 00:28 | 4.79043 | 81.97091 | 34871 ft | 494 kts | 139° |
| 2026-04-30 00:29 | 4.73865 | 82.01610 | 34871 ft | 493 kts | 139° |
| 2026-04-30 00:29 | 4.68680 | 82.06133 | 34870 ft | 494 kts | 139° |
| 2026-04-30 00:30 | 4.63499 | 82.10651 | 34874 ft | 494 kts | 139° |
| 2026-04-30 00:30 | 4.58315 | 82.15171 | 34873 ft | 493 kts | 139° |
| 2026-04-30 00:31 | 4.53133 | 82.19689 | 34871 ft | 493 kts | 139° |
| 2026-04-30 00:31 | 4.47951 | 82.24206 | 34873 ft | 493 kts | 139° |
| 2026-04-30 00:32 | 4.42804 | 82.28692 | 34873 ft | 493 kts | 139° |
| 2026-04-30 00:32 | 4.37599 | 82.33227 | 34873 ft | 493 kts | 139° |
| 2026-04-30 00:33 | 4.32420 | 82.37738 | 34874 ft | 494 kts | 138° |
| 2026-04-30 00:33 | 4.27263 | 82.42230 | 34872 ft | 493 kts | 138° |
| 2026-04-30 00:34 | 4.22082 | 82.46742 | 34870 ft | 493 kts | 138° |
| 2026-04-30 00:34 | 4.16896 | 82.51258 | 34879 ft | 494 kts | 138° |
| 2026-04-30 00:35 | 4.11704 | 82.55777 | 34879 ft | 494 kts | 138° |
| 2026-04-30 00:35 | 4.06513 | 82.60295 | 34880 ft | 494 kts | 138° |
| 2026-04-30 00:36 | 4.01327 | 82.64808 | 34876 ft | 494 kts | 138° |
| 2026-04-30 00:36 | 3.96132 | 82.69327 | 34875 ft | 494 kts | 138° |
| 2026-04-30 00:37 | 3.90939 | 82.73845 | 34879 ft | 494 kts | 138° |
| 2026-04-30 00:37 | 3.85778 | 82.78334 | 34880 ft | 494 kts | 139° |
| 2026-04-30 00:38 | 3.80587 | 82.82847 | 34879 ft | 494 kts | 139° |
| 2026-04-30 00:38 | 3.75388 | 82.87368 | 34877 ft | 494 kts | 139° |
| 2026-04-30 00:39 | 3.70191 | 82.91885 | 34883 ft | 494 kts | 139° |
| 2026-04-30 00:39 | 3.64986 | 82.96410 | 34883 ft | 495 kts | 139° |
| 2026-04-30 00:40 | 3.59786 | 83.00929 | 34883 ft | 495 kts | 139° |
| 2026-04-30 00:40 | 3.54592 | 83.05383 | 34877 ft | 495 kts | 140° |
| 2026-04-30 00:41 | 3.49289 | 83.09791 | 34879 ft | 495 kts | 140° |
| 2026-04-30 00:41 | 3.43976 | 83.14201 | 34881 ft | 495 kts | 140° |
| 2026-04-30 00:42 | 3.38678 | 83.18620 | 34882 ft | 495 kts | 140° |
| 2026-04-30 00:42 | 3.33378 | 83.23051 | 34881 ft | 495 kts | 140° |
| 2026-04-30 00:43 | 3.28120 | 83.27449 | 34884 ft | 496 kts | 139° |
| 2026-04-30 00:43 | 3.22821 | 83.31880 | 34883 ft | 496 kts | 139° |
| 2026-04-30 00:44 | 3.17523 | 83.36308 | 34883 ft | 496 kts | 139° |
| 2026-04-30 00:44 | 3.12231 | 83.40730 | 34883 ft | 496 kts | 139° |
| 2026-04-30 00:45 | 3.06928 | 83.45162 | 34884 ft | 495 kts | 139° |
| 2026-04-30 00:45 | 3.01636 | 83.49584 | 34886 ft | 495 kts | 139° |
| 2026-04-30 00:46 | 2.96380 | 83.53975 | 34884 ft | 495 kts | 139° |
| 2026-04-30 00:46 | 2.91095 | 83.58390 | 34885 ft | 494 kts | 139° |
| 2026-04-30 00:47 | 2.85820 | 83.62796 | 34886 ft | 494 kts | 139° |
| 2026-04-30 00:47 | 2.80539 | 83.67207 | 34886 ft | 493 kts | 139° |
| 2026-04-30 00:48 | 2.75289 | 83.71591 | 34885 ft | 493 kts | 139° |
| 2026-04-30 00:48 | 2.70018 | 83.75991 | 34886 ft | 493 kts | 139° |
| 2026-04-30 00:49 | 2.64740 | 83.80398 | 34887 ft | 493 kts | 139° |
| 2026-04-30 00:49 | 2.59475 | 83.84793 | 34887 ft | 493 kts | 139° |
| 2026-04-30 00:50 | 2.54191 | 83.89204 | 34883 ft | 493 kts | 139° |
| 2026-04-30 00:50 | 2.48954 | 83.93574 | 34886 ft | 493 kts | 139° |
| 2026-04-30 00:51 | 2.43679 | 83.97976 | 34888 ft | 494 kts | 139° |
| 2026-04-30 00:51 | 2.38406 | 84.02375 | 34887 ft | 494 kts | 139° |
| 2026-04-30 00:52 | 2.33129 | 84.06778 | 34885 ft | 494 kts | 139° |
| 2026-04-30 00:52 | 2.27841 | 84.11189 | 34889 ft | 494 kts | 139° |
| 2026-04-30 00:53 | 2.22564 | 84.15591 | 34888 ft | 494 kts | 139° |
| 2026-04-30 00:53 | 2.17317 | 84.19967 | 34887 ft | 494 kts | 139° |
| 2026-04-30 00:54 | 2.12035 | 84.24372 | 34889 ft | 494 kts | 139° |
| 2026-04-30 00:54 | 2.06760 | 84.28771 | 34889 ft | 493 kts | 139° |
| 2026-04-30 00:55 | 2.01491 | 84.33164 | 34889 ft | 493 kts | 139° |
| 2026-04-30 00:55 | 1.93588 | 84.39753 | 34890 ft | 493 kts | 139° |
| 2026-04-30 00:56 | 1.88346 | 84.44123 | 34893 ft | 493 kts | 139° |
| 2026-04-30 00:56 | 1.83085 | 84.48508 | 34891 ft | 492 kts | 139° |
| 2026-04-30 00:57 | 1.77824 | 84.52893 | 34894 ft | 492 kts | 139° |
| 2026-04-30 00:57 | 1.72571 | 84.57271 | 34892 ft | 492 kts | 139° |
| 2026-04-30 00:58 | 1.67315 | 84.61652 | 34892 ft | 492 kts | 139° |
| 2026-04-30 00:58 | 1.62057 | 84.66034 | 34893 ft | 492 kts | 139° |
| 2026-04-30 00:59 | 1.56792 | 84.70421 | 34891 ft | 492 kts | 139° |
| 2026-04-30 00:59 | 1.51560 | 84.74780 | 34892 ft | 492 kts | 139° |
| 2026-04-30 01:00 | 1.46307 | 84.79156 | 34895 ft | 491 kts | 139° |
| 2026-04-30 01:00 | 1.41048 | 84.83538 | 34894 ft | 491 kts | 139° |
| 2026-04-30 01:01 | 1.35785 | 84.87922 | 34894 ft | 491 kts | 139° |
| 2026-04-30 01:01 | 1.30567 | 84.92268 | 34891 ft | 491 kts | 139° |
| 2026-04-30 01:02 | 1.25317 | 84.96641 | 34891 ft | 491 kts | 139° |
| 2026-04-30 01:02 | 1.20066 | 85.01015 | 34892 ft | 491 kts | 139° |
| 2026-04-30 01:03 | 1.14805 | 85.05397 | 34896 ft | 492 kts | 139° |
| 2026-04-30 01:03 | 1.09568 | 85.09759 | 34895 ft | 492 kts | 139° |
| 2026-04-30 01:04 | 1.04314 | 85.14136 | 34894 ft | 492 kts | 139° |
| 2026-04-30 01:04 | 0.99203 | 85.18674 | 34894 ft | 491 kts | 136° |
| 2026-04-30 01:05 | 0.95000 | 85.22567 | 34894 ft | 491 kts | 136° |
| 2026-04-30 01:05 | 0.90012 | 85.27166 | 34894 ft | 491 kts | 136° |
| 2026-04-30 01:06 | 0.84960 | 85.31775 | 34894 ft | 491 kts | 136° |
| 2026-04-30 01:06 | 0.79898 | 85.36372 | 34895 ft | 491 kts | 136° |
| 2026-04-30 01:07 | 0.74836 | 85.40966 | 34894 ft | 491 kts | 136° |
| 2026-04-30 01:07 | 0.69776 | 85.45559 | 34893 ft | 491 kts | 136° |
| 2026-04-30 01:08 | 0.64751 | 85.50121 | 34894 ft | 491 kts | 136° |
| 2026-04-30 01:08 | 0.59705 | 85.54703 | 34895 ft | 490 kts | 136° |
| 2026-04-30 01:09 | 0.54658 | 85.59287 | 34894 ft | 490 kts | 137° |
| 2026-04-30 01:09 | 0.49613 | 85.63867 | 34895 ft | 490 kts | 137° |
| 2026-04-30 01:10 | 0.44573 | 85.68443 | 34891 ft | 489 kts | 137° |
| 2026-04-30 01:10 | 0.39538 | 85.73014 | 34892 ft | 489 kts | 137° |
| 2026-04-30 01:11 | 0.34496 | 85.77593 | 34895 ft | 489 kts | 137° |
| 2026-04-30 01:11 | 0.29460 | 85.82165 | 34895 ft | 489 kts | 137° |
| 2026-04-30 01:12 | 0.24452 | 85.86712 | 34894 ft | 489 kts | 137° |
| 2026-04-30 01:12 | 0.19421 | 85.91280 | 34894 ft | 489 kts | 137° |
| 2026-04-30 01:13 | 0.14375 | 85.95861 | 34894 ft | 489 kts | 137° |
| 2026-04-30 01:13 | 0.09337 | 86.00435 | 34891 ft | 489 kts | 137° |
| 2026-04-30 01:14 | 0.04336 | 86.04975 | 34891 ft | 489 kts | 137° |
| 2026-04-30 01:14 | -0.00694 | 86.09541 | 34892 ft | 489 kts | 137° |
| 2026-04-30 01:15 | -0.05726 | 86.14111 | 34897 ft | 489 kts | 137° |
| 2026-04-30 01:15 | -0.10763 | 86.18684 | 34892 ft | 489 kts | 137° |
| 2026-04-30 01:16 | -0.15813 | 86.23268 | 34893 ft | 489 kts | 137° |
| 2026-04-30 01:16 | -0.20818 | 86.27812 | 34890 ft | 489 kts | 137° |
| 2026-04-30 01:17 | -0.25863 | 86.32392 | 34892 ft | 489 kts | 137° |
| 2026-04-30 01:17 | -0.30902 | 86.36968 | 34890 ft | 489 kts | 137° |
| 2026-04-30 01:18 | -0.35995 | 86.41505 | 34891 ft | 490 kts | 138° |
| 2026-04-30 01:18 | -0.41114 | 86.45946 | 34892 ft | 490 kts | 138° |
| 2026-04-30 01:19 | -0.46266 | 86.50422 | 34893 ft | 490 kts | 138° |
| 2026-04-30 01:19 | -0.51401 | 86.54905 | 34892 ft | 490 kts | 138° |
| 2026-04-30 01:20 | -0.56497 | 86.59363 | 34892 ft | 490 kts | 138° |
| 2026-04-30 01:20 | -0.61624 | 86.63850 | 34892 ft | 489 kts | 138° |
| 2026-04-30 01:21 | -0.66746 | 86.68333 | 34896 ft | 490 kts | 138° |
| 2026-04-30 01:21 | -0.71876 | 86.72822 | 34896 ft | 490 kts | 138° |
| 2026-04-30 01:22 | -0.77011 | 86.77315 | 34892 ft | 490 kts | 138° |
| 2026-04-30 01:22 | -0.82139 | 86.81802 | 34892 ft | 490 kts | 138° |
| 2026-04-30 01:23 | -0.87272 | 86.86294 | 34893 ft | 490 kts | 138° |
| 2026-04-30 01:23 | -0.92370 | 86.90754 | 34895 ft | 490 kts | 138° |
| 2026-04-30 01:24 | -0.97514 | 86.95256 | 34896 ft | 490 kts | 138° |
| 2026-04-30 01:24 | -1.02650 | 86.99751 | 34894 ft | 490 kts | 138° |
| 2026-04-30 01:25 | -1.07754 | 87.04218 | 34891 ft | 490 kts | 138° |
| 2026-04-30 01:25 | -1.12895 | 87.08718 | 34893 ft | 491 kts | 138° |
| 2026-04-30 01:26 | -1.18036 | 87.13218 | 34895 ft | 491 kts | 138° |
| 2026-04-30 01:26 | -1.23178 | 87.17724 | 34896 ft | 491 kts | 138° |
| 2026-04-30 01:27 | -1.28329 | 87.22233 | 34898 ft | 492 kts | 139° |
| 2026-04-30 01:27 | -1.33474 | 87.26733 | 34897 ft | 492 kts | 138° |
| 2026-04-30 01:28 | -1.38594 | 87.31213 | 34896 ft | 492 kts | 139° |
| 2026-04-30 01:28 | -1.43756 | 87.35732 | 34894 ft | 493 kts | 139° |
| 2026-04-30 01:29 | -1.48921 | 87.40254 | 34895 ft | 493 kts | 139° |
| 2026-04-30 01:29 | -1.54084 | 87.44775 | 34897 ft | 493 kts | 139° |
| 2026-04-30 01:30 | -1.59220 | 87.49272 | 34898 ft | 493 kts | 139° |
| 2026-04-30 01:30 | -1.64395 | 87.53804 | 34897 ft | 494 kts | 139° |
| 2026-04-30 01:31 | -1.69576 | 87.58341 | 34898 ft | 494 kts | 139° |
| 2026-04-30 01:31 | -1.74714 | 87.62841 | 34898 ft | 494 kts | 139° |
| 2026-04-30 01:32 | -1.79891 | 87.67376 | 34895 ft | 495 kts | 139° |
| 2026-04-30 01:32 | -1.85072 | 87.71914 | 34894 ft | 495 kts | 139° |
| 2026-04-30 01:33 | -1.90255 | 87.76454 | 34896 ft | 495 kts | 139° |
| 2026-04-30 01:33 | -1.95437 | 87.80994 | 34895 ft | 495 kts | 139° |
| 2026-04-30 01:34 | -2.00710 | 87.85435 | 34893 ft | 495 kts | 143° |
| 2026-04-30 01:34 | -2.06245 | 87.89489 | 34894 ft | 495 kts | 144° |
| 2026-04-30 01:35 | -2.11865 | 87.93496 | 34899 ft | 496 kts | 144° |
| 2026-04-30 01:35 | -2.17492 | 87.97495 | 34896 ft | 496 kts | 144° |
| 2026-04-30 01:36 | -2.23077 | 88.01477 | 34897 ft | 496 kts | 144° |
| 2026-04-30 01:36 | -2.28702 | 88.05495 | 34898 ft | 496 kts | 144° |
| 2026-04-30 01:37 | -2.34319 | 88.09509 | 34898 ft | 496 kts | 144° |
| 2026-04-30 01:37 | -2.39916 | 88.13509 | 34897 ft | 496 kts | 144° |
| 2026-04-30 01:38 | -2.45536 | 88.17526 | 34900 ft | 497 kts | 144° |
| 2026-04-30 01:38 | -2.51160 | 88.21546 | 34900 ft | 497 kts | 144° |
| 2026-04-30 01:39 | -2.56779 | 88.25564 | 34898 ft | 497 kts | 144° |
| 2026-04-30 01:39 | -2.62417 | 88.29594 | 34897 ft | 497 kts | 143° |
| 2026-04-30 01:40 | -2.68052 | 88.33623 | 34899 ft | 497 kts | 143° |
| 2026-04-30 01:40 | -2.73649 | 88.37625 | 34897 ft | 497 kts | 143° |
| 2026-04-30 01:41 | -2.79283 | 88.41655 | 34898 ft | 497 kts | 143° |
| 2026-04-30 01:41 | -2.84916 | 88.45685 | 34897 ft | 497 kts | 143° |
| 2026-04-30 01:42 | -2.90555 | 88.49718 | 34900 ft | 498 kts | 143° |
| 2026-04-30 01:42 | -2.96186 | 88.53746 | 34900 ft | 498 kts | 143° |
| 2026-04-30 01:43 | -3.01828 | 88.57784 | 34900 ft | 498 kts | 143° |
| 2026-04-30 01:43 | -3.07464 | 88.61818 | 34901 ft | 498 kts | 143° |
| 2026-04-30 01:44 | -3.13104 | 88.65855 | 34897 ft | 498 kts | 143° |
| 2026-04-30 01:44 | -3.18712 | 88.69869 | 34898 ft | 499 kts | 143° |
| 2026-04-30 01:45 | -3.24362 | 88.73913 | 34901 ft | 499 kts | 143° |
| 2026-04-30 01:45 | -3.30005 | 88.77954 | 34900 ft | 499 kts | 143° |
| 2026-04-30 01:46 | -3.35648 | 88.81995 | 34900 ft | 499 kts | 143° |
| 2026-04-30 01:46 | -3.41303 | 88.86045 | 34900 ft | 499 kts | 143° |
| 2026-04-30 01:47 | -3.46962 | 88.90099 | 34899 ft | 500 kts | 143° |
| 2026-04-30 01:47 | -3.52627 | 88.94156 | 34900 ft | 500 kts | 143° |
| 2026-04-30 01:48 | -3.58250 | 88.98187 | 34903 ft | 500 kts | 143° |
| 2026-04-30 01:48 | -3.63906 | 89.02241 | 34902 ft | 500 kts | 143° |
| 2026-04-30 01:49 | -3.69569 | 89.06300 | 34904 ft | 501 kts | 143° |
| 2026-04-30 01:49 | -3.75250 | 89.10373 | 34903 ft | 501 kts | 143° |
| 2026-04-30 01:50 | -3.80927 | 89.14444 | 34902 ft | 501 kts | 143° |
| 2026-04-30 01:50 | -3.86564 | 89.18486 | 34903 ft | 501 kts | 143° |
| 2026-04-30 01:51 | -3.92240 | 89.22556 | 34902 ft | 502 kts | 143° |
| 2026-04-30 01:51 | -3.97916 | 89.26628 | 34904 ft | 502 kts | 143° |
| 2026-04-30 01:52 | -4.03604 | 89.30709 | 34905 ft | 502 kts | 143° |
| 2026-04-30 01:52 | -4.09279 | 89.34781 | 34908 ft | 502 kts | 143° |
| 2026-04-30 01:53 | -4.14966 | 89.38864 | 34906 ft | 502 kts | 143° |
| 2026-04-30 01:53 | -4.19696 | 89.42259 | 34902 ft | 503 kts | 143° |
| 2026-04-30 01:54 | -4.25357 | 89.46323 | 34909 ft | 503 kts | 143° |
| 2026-04-30 01:54 | -4.31044 | 89.50408 | 34908 ft | 503 kts | 143° |
| 2026-04-30 01:55 | -4.36730 | 89.54491 | 34909 ft | 503 kts | 143° |
| 2026-04-30 01:55 | -4.42431 | 89.58587 | 34908 ft | 503 kts | 143° |
| 2026-04-30 01:56 | -4.48125 | 89.62679 | 34905 ft | 503 kts | 143° |
| 2026-04-30 01:56 | -4.53820 | 89.66772 | 34907 ft | 503 kts | 143° |
| 2026-04-30 01:57 | -4.59511 | 89.70862 | 34909 ft | 503 kts | 143° |
| 2026-04-30 01:57 | -4.65179 | 89.74938 | 34909 ft | 504 kts | 143° |
| 2026-04-30 01:58 | -4.70878 | 89.79036 | 34909 ft | 504 kts | 143° |
| 2026-04-30 01:58 | -4.76573 | 89.83132 | 34907 ft | 504 kts | 143° |
| 2026-04-30 01:59 | -4.85127 | 89.89286 | 34914 ft | 504 kts | 143° |
| 2026-04-30 02:00 | -4.90789 | 89.93360 | 34914 ft | 504 kts | 143° |
| 2026-04-30 02:00 | -4.96489 | 89.97463 | 34909 ft | 504 kts | 143° |
| 2026-04-30 02:01 | -5.02176 | 90.01584 | 34912 ft | 504 kts | 142° |
| 2026-04-30 02:01 | -5.07703 | 90.05926 | 34913 ft | 504 kts | 140° |
| 2026-04-30 02:02 | -5.13163 | 90.10331 | 34911 ft | 504 kts | 140° |
| 2026-04-30 02:02 | -5.18655 | 90.14718 | 34909 ft | 504 kts | 140° |
| 2026-04-30 02:03 | -5.24129 | 90.19052 | 34912 ft | 504 kts | 140° |
| 2026-04-30 02:03 | -5.29639 | 90.23403 | 34913 ft | 504 kts | 140° |
| 2026-04-30 02:04 | -5.35151 | 90.27756 | 34909 ft | 504 kts | 140° |
| 2026-04-30 02:04 | -5.40655 | 90.32107 | 34907 ft | 504 kts | 140° |
| 2026-04-30 02:05 | -5.46157 | 90.36457 | 34909 ft | 504 kts | 140° |
| 2026-04-30 02:05 | -5.51666 | 90.40814 | 34911 ft | 504 kts | 140° |
| 2026-04-30 02:06 | -5.57173 | 90.45172 | 34910 ft | 503 kts | 140° |
| 2026-04-30 02:06 | -5.62643 | 90.49501 | 34909 ft | 504 kts | 140° |
| 2026-04-30 02:07 | -5.68156 | 90.53864 | 34916 ft | 504 kts | 140° |
| 2026-04-30 02:07 | -5.73665 | 90.58226 | 34914 ft | 504 kts | 140° |
| 2026-04-30 02:08 | -5.79166 | 90.62582 | 34913 ft | 504 kts | 140° |
| 2026-04-30 02:08 | -5.84687 | 90.66956 | 34913 ft | 504 kts | 140° |
| 2026-04-30 02:09 | -5.90187 | 90.71313 | 34911 ft | 504 kts | 140° |
| 2026-04-30 02:09 | -5.95668 | 90.75657 | 34911 ft | 504 kts | 140° |
| 2026-04-30 02:10 | -6.01170 | 90.80019 | 34915 ft | 504 kts | 140° |
| 2026-04-30 02:10 | -6.06675 | 90.84384 | 34913 ft | 504 kts | 140° |
| 2026-04-30 02:11 | -6.12183 | 90.88753 | 34917 ft | 504 kts | 140° |
| 2026-04-30 02:11 | -6.17700 | 90.93130 | 34913 ft | 504 kts | 140° |
| 2026-04-30 02:12 | -6.23180 | 90.97479 | 34917 ft | 504 kts | 140° |
| 2026-04-30 02:12 | -6.28681 | 91.01847 | 34914 ft | 504 kts | 140° |
| 2026-04-30 02:13 | -6.34196 | 91.06225 | 34914 ft | 505 kts | 140° |
| 2026-04-30 02:13 | -6.39707 | 91.10602 | 34914 ft | 505 kts | 140° |
| 2026-04-30 02:14 | -6.45221 | 91.14983 | 34921 ft | 505 kts | 140° |
| 2026-04-30 02:14 | -6.50734 | 91.19365 | 34918 ft | 505 kts | 140° |
| 2026-04-30 02:15 | -6.56251 | 91.23751 | 34916 ft | 505 kts | 140° |
| 2026-04-30 02:15 | -6.61728 | 91.28106 | 34918 ft | 505 kts | 140° |
| 2026-04-30 02:16 | -6.67248 | 91.32496 | 34915 ft | 505 kts | 140° |
| 2026-04-30 02:16 | -6.72766 | 91.36887 | 34918 ft | 505 kts | 140° |
| 2026-04-30 02:17 | -6.78285 | 91.41279 | 34921 ft | 506 kts | 140° |
| 2026-04-30 02:17 | -6.83814 | 91.45681 | 34924 ft | 506 kts | 140° |
| 2026-04-30 02:18 | -6.89298 | 91.50048 | 34924 ft | 506 kts | 140° |
| 2026-04-30 02:18 | -6.94816 | 91.54444 | 34921 ft | 506 kts | 140° |
| 2026-04-30 02:19 | -7.00345 | 91.58850 | 34921 ft | 506 kts | 140° |
| 2026-04-30 02:19 | -7.05837 | 91.63226 | 34924 ft | 506 kts | 140° |
| 2026-04-30 02:20 | -7.11371 | 91.67639 | 34924 ft | 506 kts | 140° |
| 2026-04-30 02:20 | -7.16900 | 91.72049 | 34925 ft | 506 kts | 140° |
| 2026-04-30 02:21 | -7.22431 | 91.76462 | 34922 ft | 506 kts | 140° |
| 2026-04-30 02:21 | -7.27917 | 91.80841 | 34926 ft | 506 kts | 140° |
| 2026-04-30 02:22 | -7.33437 | 91.85249 | 34928 ft | 506 kts | 140° |
| 2026-04-30 02:22 | -7.38957 | 91.89657 | 34928 ft | 506 kts | 140° |
| 2026-04-30 02:23 | -7.44480 | 91.94069 | 34932 ft | 506 kts | 140° |
| 2026-04-30 02:23 | -7.50003 | 91.98481 | 34930 ft | 506 kts | 140° |
| 2026-04-30 02:24 | -7.55521 | 92.02893 | 34928 ft | 506 kts | 140° |
| 2026-04-30 02:24 | -7.61049 | 92.07314 | 34928 ft | 506 kts | 140° |
| 2026-04-30 02:25 | -7.66575 | 92.11733 | 34929 ft | 506 kts | 140° |
| 2026-04-30 02:25 | -7.72056 | 92.16120 | 34928 ft | 506 kts | 140° |
| 2026-04-30 02:26 | -7.77575 | 92.20540 | 34927 ft | 506 kts | 140° |
| 2026-04-30 02:26 | -7.83090 | 92.24957 | 34929 ft | 507 kts | 140° |
| 2026-04-30 02:27 | -7.88616 | 92.29382 | 34929 ft | 507 kts | 140° |
| 2026-04-30 02:27 | -7.94139 | 92.33806 | 34934 ft | 507 kts | 140° |
| 2026-04-30 02:28 | -7.99671 | 92.38242 | 34933 ft | 507 kts | 140° |
| 2026-04-30 02:28 | -8.05191 | 92.42670 | 34934 ft | 507 kts | 140° |
| 2026-04-30 02:29 | -8.10718 | 92.47104 | 34932 ft | 507 kts | 140° |
| 2026-04-30 02:29 | -8.16214 | 92.51511 | 34930 ft | 507 kts | 140° |
| 2026-04-30 02:30 | -8.21744 | 92.55951 | 34934 ft | 507 kts | 140° |
| 2026-04-30 02:30 | -8.27249 | 92.60374 | 34935 ft | 508 kts | 140° |
| 2026-04-30 02:31 | -8.32777 | 92.64816 | 34940 ft | 508 kts | 140° |
| 2026-04-30 02:31 | -8.38316 | 92.69265 | 34938 ft | 508 kts | 140° |
| 2026-04-30 02:32 | -8.43848 | 92.73713 | 34934 ft | 508 kts | 140° |
| 2026-04-30 02:32 | -8.49378 | 92.78158 | 34933 ft | 508 kts | 140° |
| 2026-04-30 02:33 | -8.54876 | 92.82583 | 34939 ft | 508 kts | 140° |
| 2026-04-30 02:33 | -8.60425 | 92.87051 | 34937 ft | 508 kts | 140° |
| 2026-04-30 02:34 | -8.65957 | 92.91506 | 34937 ft | 508 kts | 140° |
| 2026-04-30 02:34 | -8.71458 | 92.95940 | 34934 ft | 508 kts | 140° |
| 2026-04-30 02:35 | -8.76995 | 93.00398 | 34943 ft | 509 kts | 140° |
| 2026-04-30 02:35 | -8.82522 | 93.04858 | 34943 ft | 509 kts | 140° |
| 2026-04-30 02:36 | -8.88078 | 93.09338 | 34938 ft | 509 kts | 140° |
| 2026-04-30 02:36 | -8.93608 | 93.13798 | 34942 ft | 509 kts | 140° |
| 2026-04-30 02:37 | -8.99150 | 93.18270 | 34939 ft | 509 kts | 140° |
| 2026-04-30 02:37 | -9.04651 | 93.22711 | 34938 ft | 509 kts | 140° |
| 2026-04-30 02:38 | -9.10190 | 93.27185 | 34945 ft | 509 kts | 141° |
| 2026-04-30 02:38 | -9.15725 | 93.31656 | 34943 ft | 508 kts | 141° |
| 2026-04-30 02:39 | -9.21255 | 93.36126 | 34944 ft | 508 kts | 141° |
| 2026-04-30 02:39 | -9.26784 | 93.40598 | 34942 ft | 508 kts | 141° |
| 2026-04-30 02:40 | -9.32302 | 93.45063 | 34943 ft | 508 kts | 141° |
| 2026-04-30 02:40 | -9.37828 | 93.49536 | 34947 ft | 508 kts | 141° |
| 2026-04-30 02:41 | -9.43315 | 93.53980 | 34947 ft | 508 kts | 141° |
| 2026-04-30 02:41 | -9.48837 | 93.58453 | 34945 ft | 508 kts | 141° |
| 2026-04-30 02:42 | -9.53425 | 93.62171 | 34947 ft | 507 kts | 141° |
| 2026-04-30 02:42 | -9.58942 | 93.66643 | 34948 ft | 507 kts | 141° |
| 2026-04-30 02:43 | -9.64456 | 93.71116 | 34946 ft | 507 kts | 141° |
| 2026-04-30 02:43 | -9.69933 | 93.75560 | 34951 ft | 507 kts | 141° |
| 2026-04-30 02:44 | -9.75437 | 93.80027 | 34952 ft | 507 kts | 141° |
| 2026-04-30 02:44 | -9.80944 | 93.84500 | 34951 ft | 507 kts | 141° |
| 2026-04-30 02:45 | -9.86449 | 93.88973 | 34954 ft | 507 kts | 141° |
| 2026-04-30 02:45 | -9.91958 | 93.93452 | 34953 ft | 507 kts | 141° |
| 2026-04-30 02:46 | -9.97465 | 93.97929 | 34952 ft | 507 kts | 141° |
| 2026-04-30 02:46 | -10.02922 | 94.02493 | 34948 ft | 507 kts | 137° |
| 2026-04-30 02:47 | -10.08006 | 94.07457 | 34952 ft | 508 kts | 135° |
| 2026-04-30 02:47 | -10.12988 | 94.12478 | 34956 ft | 508 kts | 135° |
| 2026-04-30 02:48 | -10.18054 | 94.17476 | 34954 ft | 508 kts | 136° |
| 2026-04-30 02:48 | -10.23162 | 94.22440 | 34952 ft | 508 kts | 136° |
| 2026-04-30 02:49 | -10.28274 | 94.27390 | 34955 ft | 508 kts | 136° |
| 2026-04-30 02:49 | -10.33385 | 94.32344 | 34956 ft | 507 kts | 136° |
| 2026-04-30 02:50 | -10.38457 | 94.37266 | 34952 ft | 507 kts | 136° |
| 2026-04-30 02:50 | -10.43564 | 94.42227 | 34954 ft | 507 kts | 136° |
| 2026-04-30 02:51 | -10.48667 | 94.47185 | 34956 ft | 508 kts | 136° |
| 2026-04-30 02:51 | -10.53781 | 94.52157 | 34959 ft | 508 kts | 136° |
| 2026-04-30 02:52 | -10.58893 | 94.57129 | 34955 ft | 508 kts | 136° |
| 2026-04-30 02:52 | -10.64009 | 94.62107 | 34954 ft | 509 kts | 136° |
| 2026-04-30 02:53 | -10.69088 | 94.67052 | 34959 ft | 510 kts | 136° |
| 2026-04-30 02:53 | -10.74218 | 94.72050 | 34960 ft | 510 kts | 136° |
| 2026-04-30 02:54 | -10.79345 | 94.77045 | 34958 ft | 510 kts | 136° |
| 2026-04-30 02:54 | -10.84475 | 94.82047 | 34962 ft | 511 kts | 136° |
| 2026-04-30 02:55 | -10.89611 | 94.87057 | 34961 ft | 511 kts | 136° |
| 2026-04-30 02:55 | -10.94744 | 94.92068 | 34958 ft | 511 kts | 136° |
| 2026-04-30 02:56 | -10.99841 | 94.97045 | 34963 ft | 511 kts | 136° |
| 2026-04-30 02:56 | -11.05010 | 95.02095 | 34962 ft | 512 kts | 136° |
| 2026-04-30 02:57 | -11.10113 | 95.07084 | 34962 ft | 512 kts | 136° |
| 2026-04-30 02:57 | -11.15260 | 95.12119 | 34962 ft | 512 kts | 136° |
| 2026-04-30 02:58 | -11.20407 | 95.17155 | 34963 ft | 513 kts | 136° |
| 2026-04-30 02:58 | -11.25554 | 95.22193 | 34963 ft | 513 kts | 136° |
| 2026-04-30 02:59 | -11.30671 | 95.27206 | 34962 ft | 514 kts | 136° |
| 2026-04-30 02:59 | -11.35831 | 95.32263 | 34964 ft | 514 kts | 136° |
| 2026-04-30 03:00 | -11.40987 | 95.37319 | 34960 ft | 514 kts | 136° |
| 2026-04-30 03:00 | -11.46160 | 95.42394 | 34967 ft | 515 kts | 136° |
| 2026-04-30 03:01 | -11.51289 | 95.47429 | 34971 ft | 515 kts | 136° |
| 2026-04-30 03:01 | -11.56484 | 95.52531 | 34968 ft | 516 kts | 136° |
| 2026-04-30 03:02 | -11.61619 | 95.57576 | 34965 ft | 516 kts | 136° |
| 2026-04-30 03:02 | -11.66788 | 95.62659 | 34969 ft | 516 kts | 136° |
| 2026-04-30 03:03 | -11.71959 | 95.67746 | 34962 ft | 516 kts | 136° |
| 2026-04-30 03:03 | -11.79709 | 95.75375 | 34969 ft | 515 kts | 136° |
| 2026-04-30 03:04 | -11.84830 | 95.80420 | 34967 ft | 515 kts | 136° |
| 2026-04-30 03:04 | -11.89990 | 95.85507 | 34964 ft | 515 kts | 136° |
| 2026-04-30 03:05 | -11.95155 | 95.90600 | 34972 ft | 515 kts | 136° |
| 2026-04-30 03:05 | -12.00286 | 95.95664 | 34970 ft | 515 kts | 136° |
| 2026-04-30 03:06 | -12.05457 | 96.00768 | 34977 ft | 515 kts | 136° |
| 2026-04-30 03:06 | -12.10612 | 96.05861 | 34973 ft | 515 kts | 136° |
| 2026-04-30 03:07 | -12.15765 | 96.10954 | 34975 ft | 515 kts | 136° |
| 2026-04-30 03:07 | -12.20924 | 96.16056 | 34972 ft | 515 kts | 136° |
| 2026-04-30 03:08 | -12.26043 | 96.21122 | 34975 ft | 515 kts | 136° |
| 2026-04-30 03:08 | -12.31190 | 96.26218 | 34972 ft | 515 kts | 136° |
| 2026-04-30 03:09 | -12.36346 | 96.31325 | 34979 ft | 516 kts | 136° |
| 2026-04-30 03:09 | -12.41498 | 96.36433 | 34979 ft | 516 kts | 136° |
| 2026-04-30 03:10 | -12.46658 | 96.41551 | 34974 ft | 516 kts | 136° |
| 2026-04-30 03:10 | -12.51784 | 96.46638 | 34974 ft | 516 kts | 136° |
| 2026-04-30 03:11 | -12.56938 | 96.51756 | 34972 ft | 516 kts | 136° |
| 2026-04-30 03:11 | -12.62091 | 96.56876 | 34973 ft | 516 kts | 136° |
| 2026-04-30 03:12 | -12.67260 | 96.62015 | 34978 ft | 517 kts | 136° |
| 2026-04-30 03:12 | -12.72386 | 96.67112 | 34975 ft | 517 kts | 136° |
| 2026-04-30 03:13 | -12.77543 | 96.72245 | 34980 ft | 517 kts | 136° |
| 2026-04-30 03:13 | -12.82707 | 96.77388 | 34979 ft | 518 kts | 136° |
| 2026-04-30 03:14 | -12.87870 | 96.82535 | 34980 ft | 518 kts | 136° |
| 2026-04-30 03:14 | -12.93035 | 96.87686 | 34980 ft | 518 kts | 136° |
| 2026-04-30 03:15 | -12.98205 | 96.92844 | 34982 ft | 518 kts | 136° |
| 2026-04-30 03:15 | -13.03377 | 96.98006 | 34980 ft | 518 kts | 136° |
| 2026-04-30 03:16 | -13.08557 | 97.03181 | 34980 ft | 519 kts | 136° |
| 2026-04-30 03:16 | -13.13723 | 97.08345 | 34982 ft | 519 kts | 136° |
| 2026-04-30 03:17 | -13.18869 | 97.13492 | 34982 ft | 519 kts | 136° |
| 2026-04-30 03:17 | -13.24047 | 97.18676 | 34982 ft | 519 kts | 136° |
| 2026-04-30 03:18 | -13.29217 | 97.23852 | 34987 ft | 519 kts | 136° |
| 2026-04-30 03:18 | -13.34396 | 97.29043 | 34986 ft | 520 kts | 136° |
| 2026-04-30 03:19 | -13.39574 | 97.34235 | 34988 ft | 520 kts | 136° |
| 2026-04-30 03:19 | -13.44746 | 97.39424 | 34987 ft | 520 kts | 136° |
| 2026-04-30 03:20 | -13.49890 | 97.44588 | 34989 ft | 520 kts | 136° |
| 2026-04-30 03:20 | -13.55069 | 97.49791 | 34989 ft | 520 kts | 136° |
| 2026-04-30 03:21 | -13.60244 | 97.54993 | 34987 ft | 520 kts | 136° |
| 2026-04-30 03:21 | -13.65427 | 97.60207 | 34988 ft | 520 kts | 136° |
| 2026-04-30 03:22 | -13.70564 | 97.65378 | 34989 ft | 520 kts | 136° |
| 2026-04-30 03:22 | -13.75741 | 97.70592 | 34990 ft | 520 kts | 136° |
| 2026-04-30 03:23 | -13.80913 | 97.75805 | 34992 ft | 521 kts | 136° |
| 2026-04-30 03:23 | -13.86092 | 97.81028 | 34992 ft | 521 kts | 136° |
| 2026-04-30 03:24 | -13.91276 | 97.86260 | 34992 ft | 521 kts | 136° |
| 2026-04-30 03:24 | -13.96423 | 97.91458 | 34989 ft | 522 kts | 136° |
| 2026-04-30 03:25 | -14.01608 | 97.96698 | 34992 ft | 522 kts | 136° |
| 2026-04-30 03:25 | -14.06796 | 98.01945 | 34994 ft | 522 kts | 136° |
| 2026-04-30 03:26 | -14.11982 | 98.07193 | 34994 ft | 522 kts | 136° |
| 2026-04-30 03:26 | -14.17140 | 98.12417 | 34993 ft | 522 kts | 136° |
| 2026-04-30 03:27 | -14.22324 | 98.17669 | 34997 ft | 522 kts | 136° |
| 2026-04-30 03:27 | -14.27501 | 98.22919 | 34997 ft | 522 kts | 136° |
| 2026-04-30 03:28 | -14.32680 | 98.28174 | 34996 ft | 522 kts | 136° |
| 2026-04-30 03:28 | -14.37860 | 98.33433 | 34996 ft | 523 kts | 136° |
| 2026-04-30 03:29 | -14.43052 | 98.38709 | 34994 ft | 523 kts | 136° |
| 2026-04-30 03:29 | -14.48237 | 98.43981 | 34996 ft | 523 kts | 136° |
| 2026-04-30 03:30 | -14.53383 | 98.49217 | 34999 ft | 523 kts | 136° |
| 2026-04-30 03:30 | -14.58572 | 98.54501 | 34999 ft | 523 kts | 136° |
| 2026-04-30 03:31 | -14.62883 | 98.58893 | 34999 ft | 523 kts | 136° |
| 2026-04-30 03:31 | -14.68065 | 98.64176 | 34999 ft | 523 kts | 136° |
| 2026-04-30 03:32 | -14.73249 | 98.69465 | 35001 ft | 523 kts | 136° |
| 2026-04-30 03:32 | -14.78394 | 98.74718 | 35002 ft | 523 kts | 136° |
| 2026-04-30 03:33 | -14.83581 | 98.80017 | 35001 ft | 524 kts | 136° |
| 2026-04-30 03:33 | -14.88766 | 98.85318 | 35002 ft | 524 kts | 136° |
| 2026-04-30 03:34 | -14.93945 | 98.90617 | 35006 ft | 524 kts | 136° |
| 2026-04-30 03:34 | -14.99123 | 98.95919 | 35004 ft | 524 kts | 136° |
| 2026-04-30 03:35 | -15.04274 | 99.01197 | 35007 ft | 524 kts | 136° |
| 2026-04-30 03:35 | -15.09454 | 99.06508 | 35007 ft | 524 kts | 136° |
| 2026-04-30 03:36 | -15.14634 | 99.11822 | 35007 ft | 524 kts | 136° |
| 2026-04-30 03:36 | -15.19810 | 99.17138 | 35008 ft | 524 kts | 136° |
| 2026-04-30 03:37 | -15.24990 | 99.22461 | 35006 ft | 524 kts | 136° |
| 2026-04-30 03:37 | -15.30181 | 99.27799 | 35007 ft | 525 kts | 136° |
| 2026-04-30 03:38 | -15.35364 | 99.33133 | 35007 ft | 525 kts | 136° |
| 2026-04-30 03:38 | -15.40515 | 99.38438 | 35009 ft | 525 kts | 136° |
| 2026-04-30 03:39 | -15.45699 | 99.43780 | 35008 ft | 525 kts | 136° |
| 2026-04-30 03:39 | -15.50888 | 99.49132 | 35011 ft | 526 kts | 136° |
| 2026-04-30 03:40 | -15.56076 | 99.54487 | 35009 ft | 526 kts | 136° |
| 2026-04-30 03:40 | -15.61266 | 99.59848 | 35012 ft | 526 kts | 137° |
| 2026-04-30 03:41 | -15.66416 | 99.65172 | 35012 ft | 526 kts | 136° |
| 2026-04-30 03:41 | -15.71599 | 99.70533 | 35012 ft | 526 kts | 136° |
| 2026-04-30 03:42 | -15.76787 | 99.75905 | 35012 ft | 526 kts | 137° |
| 2026-04-30 03:42 | -15.81975 | 99.81280 | 35013 ft | 527 kts | 136° |
| 2026-04-30 03:43 | -15.87165 | 99.86662 | 35015 ft | 527 kts | 136° |
| 2026-04-30 03:43 | -15.92355 | 99.92047 | 35013 ft | 527 kts | 137° |
| 2026-04-30 03:44 | -15.97551 | 99.97444 | 35015 ft | 527 kts | 137° |
| 2026-04-30 03:44 | -16.00212 | 100.00054 | 35129 ft | 525 kts | 141° |
| 2026-04-30 03:44 | -16.02991 | 100.02496 | 35516 ft | 521 kts | 142° |
| 2026-04-30 03:45 | -16.05772 | 100.04894 | 35906 ft | 518 kts | 142° |
| 2026-04-30 03:45 | -16.08529 | 100.07242 | 36212 ft | 517 kts | 143° |
| 2026-04-30 03:45 | -16.11324 | 100.09608 | 36473 ft | 517 kts | 143° |
| 2026-04-30 03:45 | -16.14113 | 100.11964 | 36746 ft | 516 kts | 143° |
| 2026-04-30 03:46 | -16.16904 | 100.14322 | 36982 ft | 517 kts | 143° |
| 2026-04-30 03:46 | -16.19722 | 100.16706 | 37015 ft | 521 kts | 143° |
| 2026-04-30 03:46 | -16.25346 | 100.21473 | 37020 ft | 521 kts | 143° |
| 2026-04-30 03:47 | -16.30930 | 100.26218 | 37018 ft | 521 kts | 143° |
| 2026-04-30 03:47 | -16.36544 | 100.30991 | 37017 ft | 521 kts | 143° |
| 2026-04-30 03:48 | -16.42153 | 100.35764 | 37021 ft | 521 kts | 143° |
| 2026-04-30 03:48 | -16.47765 | 100.40542 | 37020 ft | 520 kts | 143° |
| 2026-04-30 03:49 | -16.53368 | 100.45317 | 37021 ft | 520 kts | 143° |
| 2026-04-30 03:49 | -16.58970 | 100.50094 | 37021 ft | 520 kts | 143° |
| 2026-04-30 03:50 | -16.64576 | 100.54878 | 37024 ft | 520 kts | 143° |
| 2026-04-30 03:50 | -16.70181 | 100.59665 | 37025 ft | 520 kts | 143° |
| 2026-04-30 03:51 | -16.75742 | 100.64419 | 37024 ft | 520 kts | 143° |
| 2026-04-30 03:51 | -16.81347 | 100.69213 | 37022 ft | 520 kts | 143° |
| 2026-04-30 03:52 | -16.86950 | 100.74011 | 37022 ft | 521 kts | 143° |
| 2026-04-30 03:52 | -16.92528 | 100.78789 | 37028 ft | 521 kts | 143° |
| 2026-04-30 03:53 | -16.98135 | 100.83597 | 37028 ft | 521 kts | 143° |
| 2026-04-30 03:53 | -17.03752 | 100.88418 | 37028 ft | 522 kts | 143° |
| 2026-04-30 03:54 | -17.09366 | 100.93240 | 37032 ft | 522 kts | 143° |
| 2026-04-30 03:54 | -17.14986 | 100.98070 | 37029 ft | 523 kts | 143° |
| 2026-04-30 03:55 | -17.20606 | 101.02905 | 37035 ft | 524 kts | 143° |
| 2026-04-30 03:55 | -17.26206 | 101.07726 | 37030 ft | 524 kts | 143° |
| 2026-04-30 03:56 | -17.31843 | 101.12583 | 37033 ft | 525 kts | 143° |
| 2026-04-30 03:56 | -17.37487 | 101.17450 | 37034 ft | 526 kts | 143° |
| 2026-04-30 03:57 | -17.43136 | 101.22326 | 37033 ft | 526 kts | 143° |
| 2026-04-30 03:57 | -17.48758 | 101.27182 | 37034 ft | 526 kts | 143° |
| 2026-04-30 03:58 | -17.54405 | 101.32064 | 37035 ft | 526 kts | 143° |
| 2026-04-30 03:58 | -17.60056 | 101.36953 | 37036 ft | 526 kts | 143° |
| 2026-04-30 03:59 | -17.65706 | 101.41846 | 37036 ft | 526 kts | 143° |
| 2026-04-30 03:59 | -17.71356 | 101.46742 | 37037 ft | 526 kts | 143° |
| 2026-04-30 04:00 | -17.76990 | 101.51631 | 37020 ft | 523 kts | 144° |
| 2026-04-30 04:00 | -17.82562 | 101.56472 | 37028 ft | 518 kts | 144° |
| 2026-04-30 04:01 | -17.88107 | 101.61287 | 37027 ft | 517 kts | 144° |
| 2026-04-30 04:01 | -17.93617 | 101.66076 | 37028 ft | 517 kts | 144° |
| 2026-04-30 04:02 | -17.99167 | 101.70905 | 37028 ft | 517 kts | 144° |
| 2026-04-30 04:02 | -18.04711 | 101.75735 | 37028 ft | 517 kts | 144° |
| 2026-04-30 04:03 | -18.10255 | 101.80568 | 37030 ft | 518 kts | 144° |
| 2026-04-30 04:03 | -18.15798 | 101.85404 | 37031 ft | 517 kts | 144° |
| 2026-04-30 04:04 | -18.21308 | 101.90216 | 37029 ft | 517 kts | 144° |
| 2026-04-30 04:04 | -18.26855 | 101.95064 | 37033 ft | 517 kts | 144° |
| 2026-04-30 04:05 | -18.32392 | 101.99907 | 37029 ft | 517 kts | 144° |
| 2026-04-30 04:05 | -18.37927 | 102.04754 | 37035 ft | 518 kts | 144° |
| 2026-04-30 04:06 | -18.43467 | 102.09608 | 37036 ft | 518 kts | 144° |
| 2026-04-30 04:06 | -18.48979 | 102.14442 | 37036 ft | 518 kts | 144° |
| 2026-04-30 04:07 | -18.54522 | 102.19308 | 37034 ft | 518 kts | 144° |
| 2026-04-30 04:08 | -18.62851 | 102.26625 | 37048 ft | 523 kts | 144° |
| 2026-04-30 04:08 | -18.68465 | 102.31564 | 37049 ft | 526 kts | 144° |
| 2026-04-30 04:09 | -18.74046 | 102.36480 | 37048 ft | 526 kts | 144° |
| 2026-04-30 04:09 | -18.79659 | 102.41428 | 37047 ft | 526 kts | 144° |
| 2026-04-30 04:10 | -18.85279 | 102.46385 | 37049 ft | 526 kts | 144° |
| 2026-04-30 04:10 | -18.90901 | 102.51349 | 37049 ft | 526 kts | 144° |
| 2026-04-30 04:11 | -18.96511 | 102.56306 | 37051 ft | 526 kts | 144° |
| 2026-04-30 04:11 | -19.02122 | 102.61269 | 37055 ft | 526 kts | 144° |
| 2026-04-30 04:12 | -19.07739 | 102.66242 | 37051 ft | 526 kts | 144° |
| 2026-04-30 04:12 | -19.13315 | 102.71183 | 37055 ft | 526 kts | 144° |
| 2026-04-30 04:13 | -19.18935 | 102.76167 | 37054 ft | 526 kts | 144° |
| 2026-04-30 04:13 | -19.24541 | 102.81144 | 37056 ft | 526 kts | 144° |
| 2026-04-30 04:14 | -19.30162 | 102.86138 | 37059 ft | 527 kts | 144° |
| 2026-04-30 04:14 | -19.35767 | 102.91124 | 37057 ft | 527 kts | 144° |
| 2026-04-30 04:15 | -19.41379 | 102.96119 | 37057 ft | 527 kts | 144° |
| 2026-04-30 04:15 | -19.46992 | 103.01121 | 37056 ft | 527 kts | 144° |
| 2026-04-30 04:16 | -19.52601 | 103.06124 | 37058 ft | 527 kts | 144° |
| 2026-04-30 04:16 | -19.58171 | 103.11096 | 37059 ft | 527 kts | 144° |
| 2026-04-30 04:17 | -19.63787 | 103.16115 | 37059 ft | 527 kts | 144° |
| 2026-04-30 04:17 | -19.69389 | 103.21125 | 37058 ft | 527 kts | 144° |
| 2026-04-30 04:18 | -19.74999 | 103.26148 | 37063 ft | 527 kts | 144° |
| 2026-04-30 04:18 | -19.80606 | 103.31172 | 37058 ft | 527 kts | 144° |
| 2026-04-30 04:19 | -19.86214 | 103.36202 | 37058 ft | 527 kts | 144° |
| 2026-04-30 04:19 | -19.91785 | 103.41203 | 37069 ft | 527 kts | 144° |
| 2026-04-30 04:20 | -19.97394 | 103.46244 | 37067 ft | 528 kts | 144° |
| 2026-04-30 04:20 | -20.02970 | 103.51336 | 37058 ft | 529 kts | 142° |
| 2026-04-30 04:21 | -20.07445 | 103.55795 | 37064 ft | 530 kts | 140° |
| 2026-04-30 04:21 | -20.13640 | 103.62128 | 37057 ft | 531 kts | 141° |
| 2026-04-30 04:22 | -20.18128 | 103.66668 | 37055 ft | 530 kts | 141° |
| 2026-04-30 04:22 | -20.23471 | 103.72025 | 37063 ft | 530 kts | 141° |
| 2026-04-30 04:23 | -20.28850 | 103.77403 | 37065 ft | 531 kts | 141° |
| 2026-04-30 04:23 | -20.34239 | 103.82797 | 37064 ft | 531 kts | 141° |
| 2026-04-30 04:24 | -20.39611 | 103.88184 | 37063 ft | 531 kts | 141° |
| 2026-04-30 04:24 | -20.45001 | 103.93594 | 37065 ft | 531 kts | 141° |
| 2026-04-30 04:25 | -20.50343 | 103.98963 | 37065 ft | 531 kts | 141° |
| 2026-04-30 04:25 | -20.55721 | 104.04373 | 37069 ft | 531 kts | 141° |
| 2026-04-30 04:26 | -20.61103 | 104.09792 | 37067 ft | 531 kts | 141° |
| 2026-04-30 04:26 | -20.66485 | 104.15216 | 37069 ft | 532 kts | 141° |
| 2026-04-30 04:27 | -20.71870 | 104.20651 | 37069 ft | 532 kts | 141° |
| 2026-04-30 04:27 | -20.77250 | 104.26084 | 37067 ft | 532 kts | 141° |
| 2026-04-30 04:28 | -20.82627 | 104.31521 | 37067 ft | 532 kts | 141° |
| 2026-04-30 04:28 | -20.87980 | 104.36939 | 37070 ft | 532 kts | 141° |
| 2026-04-30 04:29 | -20.93353 | 104.42382 | 37066 ft | 533 kts | 141° |
| 2026-04-30 04:29 | -20.98736 | 104.47842 | 37067 ft | 533 kts | 141° |
| 2026-04-30 04:30 | -21.04117 | 104.53306 | 37071 ft | 533 kts | 141° |
| 2026-04-30 04:30 | -21.09503 | 104.58780 | 37068 ft | 533 kts | 141° |
| 2026-04-30 04:31 | -21.14851 | 104.64221 | 37069 ft | 533 kts | 141° |
| 2026-04-30 04:31 | -21.20256 | 104.69734 | 37073 ft | 539 kts | 142° |
| 2026-04-30 04:32 | -21.25714 | 104.75292 | 37066 ft | 541 kts | 142° |
| 2026-04-30 04:32 | -21.31163 | 104.80850 | 37071 ft | 541 kts | 142° |
| 2026-04-30 04:33 | -21.36593 | 104.86398 | 37069 ft | 542 kts | 142° |
| 2026-04-30 04:33 | -21.42051 | 104.91981 | 37070 ft | 542 kts | 142° |
| 2026-04-30 04:34 | -21.47511 | 104.97571 | 37071 ft | 542 kts | 142° |
| 2026-04-30 04:34 | -21.52974 | 105.03172 | 37072 ft | 542 kts | 142° |
| 2026-04-30 04:35 | -21.58435 | 105.08775 | 37073 ft | 543 kts | 142° |
| 2026-04-30 04:35 | -21.63870 | 105.14359 | 37076 ft | 543 kts | 142° |
| 2026-04-30 04:36 | -21.69334 | 105.19979 | 37076 ft | 543 kts | 142° |
| 2026-04-30 04:36 | -21.74796 | 105.25602 | 37076 ft | 544 kts | 142° |
| 2026-04-30 04:37 | -21.80258 | 105.31232 | 37074 ft | 544 kts | 142° |
| 2026-04-30 04:37 | -21.85724 | 105.36873 | 37076 ft | 544 kts | 142° |
| 2026-04-30 04:38 | -21.91199 | 105.42529 | 37073 ft | 545 kts | 142° |
| 2026-04-30 04:38 | -21.96665 | 105.48181 | 37071 ft | 545 kts | 142° |
| 2026-04-30 04:39 | -22.02107 | 105.53816 | 37074 ft | 545 kts | 142° |
| 2026-04-30 04:39 | -22.07577 | 105.59485 | 37073 ft | 546 kts | 142° |
| 2026-04-30 04:40 | -22.13044 | 105.65159 | 37074 ft | 546 kts | 142° |
| 2026-04-30 04:40 | -22.18522 | 105.70850 | 37073 ft | 546 kts | 142° |
| 2026-04-30 04:41 | -22.24002 | 105.76550 | 37079 ft | 546 kts | 142° |
| 2026-04-30 04:41 | -22.29439 | 105.82210 | 37075 ft | 546 kts | 142° |
| 2026-04-30 04:42 | -22.34906 | 105.87910 | 37076 ft | 547 kts | 142° |
| 2026-04-30 04:42 | -22.40380 | 105.93623 | 37076 ft | 547 kts | 142° |
| 2026-04-30 04:43 | -22.45857 | 105.99345 | 37077 ft | 547 kts | 142° |
| 2026-04-30 04:43 | -22.51328 | 106.05069 | 37076 ft | 547 kts | 142° |
| 2026-04-30 04:44 | -22.56796 | 106.10795 | 37072 ft | 547 kts | 142° |
| 2026-04-30 04:44 | -22.62228 | 106.16491 | 37086 ft | 547 kts | 142° |
| 2026-04-30 04:45 | -22.67698 | 106.22232 | 37081 ft | 547 kts | 142° |
| 2026-04-30 04:45 | -22.73164 | 106.27976 | 37085 ft | 547 kts | 142° |
| 2026-04-30 04:46 | -22.78644 | 106.33742 | 37084 ft | 548 kts | 142° |
| 2026-04-30 04:46 | -22.84079 | 106.39468 | 37085 ft | 548 kts | 142° |
| 2026-04-30 04:47 | -22.89554 | 106.45242 | 37082 ft | 548 kts | 142° |
| 2026-04-30 04:47 | -22.95011 | 106.51005 | 37085 ft | 548 kts | 142° |
| 2026-04-30 04:48 | -23.00476 | 106.56782 | 37085 ft | 548 kts | 142° |
| 2026-04-30 04:48 | -23.05936 | 106.62561 | 37088 ft | 548 kts | 142° |
| 2026-04-30 04:49 | -23.11368 | 106.68316 | 37086 ft | 549 kts | 142° |
| 2026-04-30 04:49 | -23.16835 | 106.74118 | 37095 ft | 549 kts | 142° |
| 2026-04-30 04:50 | -23.22297 | 106.79920 | 37087 ft | 549 kts | 142° |
| 2026-04-30 04:50 | -23.27774 | 106.85744 | 37089 ft | 549 kts | 142° |
| 2026-04-30 04:51 | -23.33235 | 106.91559 | 37091 ft | 549 kts | 142° |
| 2026-04-30 04:51 | -23.38657 | 106.97340 | 37092 ft | 549 kts | 142° |
| 2026-04-30 04:52 | -23.44115 | 107.03165 | 37092 ft | 550 kts | 142° |
| 2026-04-30 04:52 | -23.49580 | 107.09006 | 37094 ft | 550 kts | 142° |
| 2026-04-30 04:53 | -23.55042 | 107.14851 | 37097 ft | 550 kts | 142° |
| 2026-04-30 04:53 | -23.60513 | 107.20712 | 37092 ft | 551 kts | 142° |
| 2026-04-30 04:54 | -23.65978 | 107.26574 | 37088 ft | 551 kts | 142° |
| 2026-04-30 04:54 | -23.71449 | 107.32450 | 37095 ft | 552 kts | 142° |
| 2026-04-30 04:55 | -23.76882 | 107.38293 | 37098 ft | 552 kts | 142° |
| 2026-04-30 04:55 | -23.82359 | 107.44189 | 37099 ft | 552 kts | 143° |
| 2026-04-30 04:56 | -23.87835 | 107.50093 | 37098 ft | 553 kts | 143° |
| 2026-04-30 04:56 | -23.93315 | 107.56008 | 37100 ft | 553 kts | 143° |
| 2026-04-30 04:57 | -23.98788 | 107.61922 | 37098 ft | 554 kts | 143° |
| 2026-04-30 04:57 | -24.04239 | 107.67821 | 37100 ft | 554 kts | 143° |
| 2026-04-30 04:58 | -24.09733 | 107.73774 | 37098 ft | 555 kts | 143° |
| 2026-04-30 04:58 | -24.15218 | 107.79725 | 37102 ft | 555 kts | 143° |
| 2026-04-30 04:59 | -24.20701 | 107.85681 | 37102 ft | 555 kts | 143° |
| 2026-04-30 04:59 | -24.26190 | 107.91651 | 37101 ft | 556 kts | 143° |
| 2026-04-30 05:00 | -24.31678 | 107.97627 | 37103 ft | 556 kts | 143° |
| 2026-04-30 05:00 | -24.37145 | 108.03588 | 37104 ft | 557 kts | 143° |
| 2026-04-30 05:01 | -24.42642 | 108.09591 | 37110 ft | 557 kts | 143° |
| 2026-04-30 05:01 | -24.48138 | 108.15599 | 37108 ft | 558 kts | 143° |
| 2026-04-30 05:02 | -24.53638 | 108.21620 | 37106 ft | 558 kts | 143° |
| 2026-04-30 05:02 | -24.59135 | 108.27646 | 37107 ft | 558 kts | 143° |
| 2026-04-30 05:03 | -24.64629 | 108.33675 | 37108 ft | 559 kts | 143° |
| 2026-04-30 05:03 | -24.70134 | 108.39725 | 37104 ft | 559 kts | 143° |
| 2026-04-30 05:04 | -24.75631 | 108.45775 | 37109 ft | 559 kts | 143° |
| 2026-04-30 05:04 | -24.81135 | 108.51842 | 37108 ft | 560 kts | 143° |
| 2026-04-30 05:05 | -24.86598 | 108.57870 | 37109 ft | 560 kts | 143° |
| 2026-04-30 05:05 | -24.92102 | 108.63953 | 37111 ft | 560 kts | 143° |
| 2026-04-30 05:06 | -25.00359 | 108.73090 | 37106 ft | 561 kts | 143° |
| 2026-04-30 05:06 | -25.05871 | 108.79201 | 37111 ft | 561 kts | 143° |
| 2026-04-30 05:07 | -25.11385 | 108.85321 | 37107 ft | 562 kts | 143° |
| 2026-04-30 05:07 | -25.16891 | 108.91442 | 37113 ft | 562 kts | 144° |
| 2026-04-30 05:08 | -25.22402 | 108.97576 | 37114 ft | 563 kts | 144° |
| 2026-04-30 05:08 | -25.27888 | 109.03691 | 37116 ft | 563 kts | 144° |
| 2026-04-30 05:09 | -25.33402 | 109.09846 | 37114 ft | 563 kts | 144° |
| 2026-04-30 05:09 | -25.37988 | 109.14972 | 37115 ft | 563 kts | 144° |
| 2026-04-30 05:10 | -25.43499 | 109.21138 | 37112 ft | 564 kts | 144° |
| 2026-04-30 05:10 | -25.49011 | 109.27316 | 37110 ft | 564 kts | 144° |
| 2026-04-30 05:11 | -25.54533 | 109.33511 | 37115 ft | 565 kts | 144° |
| 2026-04-30 05:11 | -25.60059 | 109.39721 | 37112 ft | 566 kts | 144° |
| 2026-04-30 05:12 | -25.65583 | 109.45937 | 37113 ft | 566 kts | 144° |
| 2026-04-30 05:12 | -25.71112 | 109.52167 | 37112 ft | 567 kts | 144° |
| 2026-04-30 05:13 | -25.76611 | 109.58373 | 37114 ft | 567 kts | 144° |
| 2026-04-30 05:13 | -25.82145 | 109.64626 | 37105 ft | 568 kts | 144° |
| 2026-04-30 05:14 | -25.87682 | 109.70892 | 37114 ft | 568 kts | 144° |
| 2026-04-30 05:14 | -25.93205 | 109.77152 | 37114 ft | 568 kts | 144° |
| 2026-04-30 05:15 | -25.98737 | 109.83430 | 37109 ft | 568 kts | 144° |
| 2026-04-30 05:15 | -26.04264 | 109.89711 | 37111 ft | 568 kts | 144° |
| 2026-04-30 05:16 | -26.09784 | 109.95994 | 37114 ft | 568 kts | 144° |
| 2026-04-30 05:16 | -26.15306 | 110.02287 | 37115 ft | 568 kts | 143° |
| 2026-04-30 05:17 | -26.20790 | 110.08547 | 37112 ft | 567 kts | 143° |
| 2026-04-30 05:17 | -26.26293 | 110.14838 | 37113 ft | 567 kts | 143° |
| 2026-04-30 05:18 | -26.31800 | 110.21142 | 37113 ft | 567 kts | 143° |
| 2026-04-30 05:18 | -26.37301 | 110.27447 | 37113 ft | 567 kts | 143° |
| 2026-04-30 05:19 | -26.42802 | 110.33763 | 37111 ft | 566 kts | 143° |
| 2026-04-30 05:19 | -26.48296 | 110.40079 | 37112 ft | 566 kts | 143° |
| 2026-04-30 05:20 | -26.53735 | 110.46341 | 37112 ft | 566 kts | 143° |
| 2026-04-30 05:20 | -26.59225 | 110.52672 | 37109 ft | 565 kts | 143° |
| 2026-04-30 05:21 | -26.64703 | 110.58997 | 37110 ft | 565 kts | 143° |
| 2026-04-30 05:21 | -26.70172 | 110.65323 | 37113 ft | 565 kts | 143° |
| 2026-04-30 05:22 | -26.75603 | 110.71613 | 37112 ft | 564 kts | 143° |
| 2026-04-30 05:22 | -26.81055 | 110.77937 | 37106 ft | 564 kts | 143° |
| 2026-04-30 05:23 | -26.86501 | 110.84263 | 37104 ft | 564 kts | 143° |
| 2026-04-30 05:23 | -26.91938 | 110.90588 | 37108 ft | 563 kts | 143° |
| 2026-04-30 05:24 | -26.97365 | 110.96911 | 37108 ft | 563 kts | 142° |
| 2026-04-30 05:24 | -27.02530 | 111.03597 | 37106 ft | 570 kts | 137° |
| 2026-04-30 05:25 | -27.07429 | 111.10554 | 37110 ft | 570 kts | 136° |
| 2026-04-30 05:25 | -27.12301 | 111.17594 | 37109 ft | 570 kts | 135° |
| 2026-04-30 05:26 | -27.17166 | 111.24625 | 37106 ft | 570 kts | 135° |
| 2026-04-30 05:26 | -27.22007 | 111.31611 | 37103 ft | 569 kts | 135° |
| 2026-04-30 05:27 | -27.26873 | 111.38633 | 37102 ft | 569 kts | 135° |
| 2026-04-30 05:27 | -27.31730 | 111.45654 | 37104 ft | 568 kts | 135° |
| 2026-04-30 05:28 | -27.36587 | 111.52687 | 37103 ft | 568 kts | 135° |
| 2026-04-30 05:28 | -27.41430 | 111.59711 | 37103 ft | 568 kts | 135° |
| 2026-04-30 05:29 | -27.46245 | 111.66704 | 37101 ft | 568 kts | 135° |
| 2026-04-30 05:29 | -27.51079 | 111.73738 | 37102 ft | 567 kts | 135° |
| 2026-04-30 05:30 | -27.55916 | 111.80789 | 37100 ft | 567 kts | 135° |
| 2026-04-30 05:30 | -27.60735 | 111.87823 | 37103 ft | 567 kts | 135° |
| 2026-04-30 05:31 | -27.65549 | 111.94861 | 37091 ft | 566 kts | 135° |
| 2026-04-30 05:31 | -27.70361 | 112.01908 | 37103 ft | 566 kts | 134° |
| 2026-04-30 05:32 | -27.75130 | 112.08903 | 37101 ft | 566 kts | 134° |
| 2026-04-30 05:32 | -27.79923 | 112.15945 | 37098 ft | 566 kts | 134° |
| 2026-04-30 05:33 | -27.84716 | 112.22999 | 37104 ft | 565 kts | 134° |
| 2026-04-30 05:33 | -27.89498 | 112.30048 | 37098 ft | 565 kts | 134° |
| 2026-04-30 05:34 | -27.94271 | 112.37093 | 37098 ft | 565 kts | 134° |
| 2026-04-30 05:34 | -27.99047 | 112.44157 | 37100 ft | 565 kts | 134° |
| 2026-04-30 05:35 | -28.03815 | 112.51219 | 37097 ft | 564 kts | 134° |
| 2026-04-30 05:35 | -28.08592 | 112.58307 | 37097 ft | 564 kts | 134° |
| 2026-04-30 05:36 | -28.13345 | 112.65372 | 37099 ft | 564 kts | 134° |
| 2026-04-30 05:36 | -28.18089 | 112.72434 | 37100 ft | 563 kts | 134° |
| 2026-04-30 05:37 | -28.22802 | 112.79461 | 37095 ft | 563 kts | 133° |
| 2026-04-30 05:37 | -28.27547 | 112.86548 | 37095 ft | 563 kts | 133° |
| 2026-04-30 05:38 | -28.32284 | 112.93634 | 37096 ft | 563 kts | 133° |
| 2026-04-30 05:38 | -28.36982 | 113.00675 | 37094 ft | 563 kts | 133° |
| 2026-04-30 05:39 | -28.41703 | 113.07761 | 37097 ft | 563 kts | 133° |
| 2026-04-30 05:39 | -28.46428 | 113.14865 | 37096 ft | 563 kts | 133° |
| 2026-04-30 05:40 | -28.51146 | 113.21969 | 37097 ft | 562 kts | 133° |
| 2026-04-30 05:40 | -28.55828 | 113.29032 | 37096 ft | 563 kts | 133° |
| 2026-04-30 05:41 | -28.60542 | 113.36155 | 37098 ft | 562 kts | 133° |
| 2026-04-30 05:41 | -28.65246 | 113.43276 | 37101 ft | 562 kts | 133° |
| 2026-04-30 05:42 | -28.69945 | 113.50402 | 37087 ft | 563 kts | 133° |
| 2026-04-30 05:42 | -28.74647 | 113.57543 | 37090 ft | 563 kts | 132° |
| 2026-04-30 05:43 | -28.79345 | 113.64690 | 37094 ft | 563 kts | 132° |
| 2026-04-30 05:43 | -28.84011 | 113.71801 | 37091 ft | 563 kts | 132° |
| 2026-04-30 05:44 | -28.88698 | 113.78955 | 37087 ft | 563 kts | 132° |
| 2026-04-30 05:44 | -28.93383 | 113.86119 | 37089 ft | 563 kts | 132° |
| 2026-04-30 05:45 | -28.98065 | 113.93291 | 37093 ft | 563 kts | 132° |
| 2026-04-30 05:45 | -29.02740 | 114.00477 | 37091 ft | 564 kts | 130° |
| 2026-04-30 05:46 | -29.06945 | 114.08094 | 37088 ft | 568 kts | 125° |
| 2026-04-30 05:46 | -29.10962 | 114.15838 | 37086 ft | 568 kts | 124° |
| 2026-04-30 05:47 | -29.14958 | 114.23642 | 37088 ft | 568 kts | 124° |
| 2026-04-30 05:47 | -29.18961 | 114.31450 | 37094 ft | 568 kts | 124° |
| 2026-04-30 05:48 | -29.22965 | 114.39248 | 37085 ft | 568 kts | 124° |
| 2026-04-30 05:48 | -29.26970 | 114.47055 | 37086 ft | 568 kts | 124° |
| 2026-04-30 05:49 | -29.30974 | 114.54876 | 37085 ft | 568 kts | 124° |
| 2026-04-30 05:49 | -29.34970 | 114.62698 | 37089 ft | 569 kts | 124° |
| 2026-04-30 05:50 | -29.38940 | 114.70484 | 37080 ft | 569 kts | 124° |
| 2026-04-30 05:50 | -29.42923 | 114.78312 | 37072 ft | 569 kts | 124° |
| 2026-04-30 05:51 | -29.46914 | 114.86168 | 37065 ft | 569 kts | 124° |
| 2026-04-30 05:51 | -29.50891 | 114.94014 | 37072 ft | 569 kts | 124° |
| 2026-04-30 05:52 | -29.54865 | 115.01868 | 37070 ft | 569 kts | 124° |
| 2026-04-30 05:52 | -29.58835 | 115.09729 | 37068 ft | 569 kts | 124° |
| 2026-04-30 05:53 | -29.62780 | 115.17558 | 37063 ft | 569 kts | 123° |
| 2026-04-30 05:53 | -29.66745 | 115.25441 | 37061 ft | 569 kts | 123° |
| 2026-04-30 05:54 | -29.70706 | 115.33334 | 37055 ft | 569 kts | 123° |
| 2026-04-30 05:54 | -29.74660 | 115.41225 | 37057 ft | 569 kts | 123° |
| 2026-04-30 05:55 | -29.78616 | 115.49137 | 37055 ft | 569 kts | 123° |
| 2026-04-30 05:55 | -29.82561 | 115.57043 | 37048 ft | 569 kts | 123° |
| 2026-04-30 05:56 | -29.86498 | 115.64948 | 37046 ft | 570 kts | 123° |
| 2026-04-30 05:56 | -29.90417 | 115.72832 | 37047 ft | 570 kts | 123° |
| 2026-04-30 05:57 | -29.94357 | 115.80774 | 37042 ft | 570 kts | 123° |
| 2026-04-30 05:57 | -29.98288 | 115.88714 | 37044 ft | 570 kts | 123° |
| 2026-04-30 05:58 | -30.02216 | 115.96665 | 37042 ft | 570 kts | 123° |
| 2026-04-30 05:58 | -30.05475 | 116.03272 | 37043 ft | 570 kts | 123° |
| 2026-04-30 05:59 | -30.09403 | 116.11252 | 37044 ft | 571 kts | 123° |
| 2026-04-30 05:59 | -30.13950 | 116.20509 | 37044 ft | 570 kts | 123° |
| 2026-04-30 06:00 | -30.17207 | 116.27154 | 37043 ft | 570 kts | 123° |
| 2026-04-30 06:00 | -30.21118 | 116.35147 | 37044 ft | 571 kts | 123° |
| 2026-04-30 06:01 | -30.25019 | 116.43136 | 37040 ft | 571 kts | 123° |
| 2026-04-30 06:01 | -30.28917 | 116.51135 | 37039 ft | 571 kts | 122° |
| 2026-04-30 06:02 | -30.32812 | 116.59144 | 37040 ft | 570 kts | 122° |
| 2026-04-30 06:02 | -30.36668 | 116.67095 | 37039 ft | 563 kts | 122° |
| 2026-04-30 06:03 | -30.40489 | 116.74984 | 37036 ft | 561 kts | 122° |
| 2026-04-30 06:03 | -30.44311 | 116.82888 | 37035 ft | 561 kts | 122° |
| 2026-04-30 06:04 | -30.48125 | 116.90793 | 37036 ft | 562 kts | 122° |
| 2026-04-30 06:05 | -30.53836 | 117.02661 | 37035 ft | 562 kts | 122° |
| 2026-04-30 06:05 | -30.57607 | 117.10520 | 37032 ft | 562 kts | 122° |
| 2026-04-30 06:06 | -30.61428 | 117.18499 | 37032 ft | 561 kts | 122° |
| 2026-04-30 06:06 | -30.65196 | 117.26383 | 37033 ft | 561 kts | 122° |
| 2026-04-30 06:07 | -30.68986 | 117.34327 | 37030 ft | 562 kts | 122° |
| 2026-04-30 06:07 | -30.72775 | 117.42288 | 37029 ft | 561 kts | 122° |
| 2026-04-30 06:08 | -30.76524 | 117.50179 | 37023 ft | 562 kts | 122° |
| 2026-04-30 06:08 | -30.80298 | 117.58141 | 37024 ft | 561 kts | 122° |
| 2026-04-30 06:09 | -30.84063 | 117.66101 | 37024 ft | 562 kts | 122° |
| 2026-04-30 06:09 | -30.87829 | 117.74078 | 37024 ft | 562 kts | 122° |
| 2026-04-30 06:10 | -30.91569 | 117.82017 | 37021 ft | 562 kts | 121° |
| 2026-04-30 06:10 | -30.95317 | 117.89990 | 37022 ft | 561 kts | 121° |
| 2026-04-30 06:11 | -30.99063 | 117.97975 | 37020 ft | 563 kts | 121° |
| 2026-04-30 06:11 | -31.00949 | 118.02003 | 37150 ft | 567 kts | 121° |
| 2026-04-30 06:11 | -31.02811 | 118.06047 | 37431 ft | 567 kts | 121° |
| 2026-04-30 06:11 | -31.04657 | 118.10116 | 37729 ft | 567 kts | 120° |
| 2026-04-30 06:12 | -31.06493 | 118.14185 | 38024 ft | 566 kts | 120° |
| 2026-04-30 06:12 | -31.08333 | 118.18267 | 38302 ft | 566 kts | 120° |
| 2026-04-30 06:12 | -31.10169 | 118.22341 | 38548 ft | 566 kts | 121° |
| 2026-04-30 06:12 | -31.12006 | 118.26409 | 38783 ft | 566 kts | 121° |
| 2026-04-30 06:13 | -31.13817 | 118.30418 | 38960 ft | 567 kts | 121° |
| 2026-04-30 06:13 | -31.17514 | 118.38603 | 39003 ft | 569 kts | 120° |
| 2026-04-30 06:14 | -31.21201 | 118.46783 | 39000 ft | 569 kts | 120° |
| 2026-04-30 06:14 | -31.24879 | 118.54963 | 39005 ft | 568 kts | 120° |
| 2026-04-30 06:15 | -31.28557 | 118.63162 | 39000 ft | 568 kts | 120° |
| 2026-04-30 06:15 | -31.32204 | 118.71307 | 38999 ft | 568 kts | 120° |
| 2026-04-30 06:16 | -31.35864 | 118.79501 | 39000 ft | 568 kts | 120° |
| 2026-04-30 06:16 | -31.39522 | 118.87707 | 38996 ft | 568 kts | 120° |
| 2026-04-30 06:17 | -31.43173 | 118.95916 | 38992 ft | 568 kts | 120° |
| 2026-04-30 06:17 | -31.46796 | 119.04081 | 38992 ft | 568 kts | 120° |
| 2026-04-30 06:18 | -31.50440 | 119.12311 | 38993 ft | 568 kts | 120° |
| 2026-04-30 06:18 | -31.54076 | 119.20542 | 38988 ft | 568 kts | 120° |
| 2026-04-30 06:19 | -31.57704 | 119.28772 | 38987 ft | 568 kts | 120° |
| 2026-04-30 06:19 | -31.61308 | 119.36966 | 38988 ft | 568 kts | 120° |
| 2026-04-30 06:20 | -31.64925 | 119.45209 | 38986 ft | 567 kts | 120° |
| 2026-04-30 06:20 | -31.68538 | 119.53460 | 38981 ft | 567 kts | 119° |
| 2026-04-30 06:21 | -31.72141 | 119.61707 | 38979 ft | 567 kts | 119° |
| 2026-04-30 06:21 | -31.75736 | 119.69956 | 38979 ft | 567 kts | 119° |
| 2026-04-30 06:22 | -31.79311 | 119.78175 | 38979 ft | 567 kts | 119° |
| 2026-04-30 06:22 | -31.82895 | 119.86435 | 38979 ft | 567 kts | 119° |
| 2026-04-30 06:23 | -31.86475 | 119.94703 | 38979 ft | 567 kts | 119° |
| 2026-04-30 06:23 | -31.90048 | 120.02975 | 38978 ft | 567 kts | 119° |
| 2026-04-30 06:24 | -31.93624 | 120.11273 | 38981 ft | 567 kts | 119° |
| 2026-04-30 06:24 | -31.97187 | 120.19559 | 38979 ft | 567 kts | 119° |
| 2026-04-30 06:25 | -32.00744 | 120.27849 | 38980 ft | 567 kts | 118° |
| 2026-04-30 06:25 | -32.04299 | 120.36157 | 38969 ft | 567 kts | 118° |
| 2026-04-30 06:26 | -32.07828 | 120.44419 | 38970 ft | 567 kts | 118° |
| 2026-04-30 06:26 | -32.11373 | 120.52741 | 38967 ft | 567 kts | 118° |
| 2026-04-30 06:27 | -32.14912 | 120.61065 | 38968 ft | 567 kts | 118° |
| 2026-04-30 06:27 | -32.18388 | 120.69438 | 38964 ft | 567 kts | 116° |
| 2026-04-30 06:28 | -32.21503 | 120.77949 | 38962 ft | 568 kts | 114° |
| 2026-04-30 06:28 | -32.24533 | 120.86561 | 38960 ft | 568 kts | 114° |
| 2026-04-30 06:29 | -32.27612 | 120.95162 | 38958 ft | 568 kts | 114° |
| 2026-04-30 06:29 | -32.30726 | 121.03744 | 38956 ft | 568 kts | 114° |
| 2026-04-30 06:30 | -32.33847 | 121.12324 | 38953 ft | 568 kts | 114° |
| 2026-04-30 06:30 | -32.36959 | 121.20906 | 38953 ft | 568 kts | 114° |
| 2026-04-30 06:31 | -32.40066 | 121.29502 | 38950 ft | 568 kts | 114° |
| 2026-04-30 06:31 | -32.43163 | 121.38099 | 38949 ft | 568 kts | 114° |
| 2026-04-30 06:32 | -32.46256 | 121.46709 | 38947 ft | 568 kts | 114° |
| 2026-04-30 06:32 | -32.49321 | 121.55258 | 38946 ft | 568 kts | 114° |
| 2026-04-30 06:33 | -32.52405 | 121.63885 | 38946 ft | 568 kts | 114° |
| 2026-04-30 06:33 | -32.55479 | 121.72506 | 38945 ft | 569 kts | 114° |
| 2026-04-30 06:34 | -32.58578 | 121.81217 | 38944 ft | 577 kts | 114° |
| 2026-04-30 06:34 | -32.61710 | 121.90046 | 38945 ft | 582 kts | 114° |
| 2026-04-30 06:35 | -32.64823 | 121.98849 | 38942 ft | 582 kts | 114° |
| 2026-04-30 06:35 | -32.67950 | 122.07715 | 38944 ft | 582 kts | 114° |
| 2026-04-30 06:36 | -32.71072 | 122.16588 | 38942 ft | 581 kts | 113° |
| 2026-04-30 06:36 | -32.74187 | 122.25463 | 38940 ft | 582 kts | 113° |
| 2026-04-30 06:37 | -32.77293 | 122.34340 | 38942 ft | 581 kts | 113° |
| 2026-04-30 06:37 | -32.80374 | 122.43167 | 38941 ft | 581 kts | 113° |
| 2026-04-30 06:38 | -32.83469 | 122.52059 | 38938 ft | 582 kts | 113° |
| 2026-04-30 06:38 | -32.86560 | 122.60962 | 38939 ft | 582 kts | 113° |
| 2026-04-30 06:39 | -32.89627 | 122.69823 | 38939 ft | 577 kts | 113° |
| 2026-04-30 06:39 | -32.92679 | 122.78663 | 38937 ft | 579 kts | 113° |
| 2026-04-30 06:40 | -32.95732 | 122.87533 | 38936 ft | 579 kts | 113° |
| 2026-04-30 06:40 | -32.98783 | 122.96418 | 38933 ft | 579 kts | 112° |
| 2026-04-30 06:41 | -33.01428 | 123.05437 | 38935 ft | 580 kts | 108° |
| 2026-04-30 06:41 | -33.03827 | 123.14610 | 38935 ft | 580 kts | 107° |
| 2026-04-30 06:42 | -33.06179 | 123.23819 | 38939 ft | 580 kts | 107° |
| 2026-04-30 06:42 | -33.08529 | 123.33029 | 38938 ft | 580 kts | 107° |
| 2026-04-30 06:43 | -33.10879 | 123.42229 | 38933 ft | 580 kts | 107° |
| 2026-04-30 06:43 | -33.13229 | 123.51440 | 38935 ft | 580 kts | 107° |
| 2026-04-30 06:44 | -33.15557 | 123.60596 | 38939 ft | 580 kts | 107° |
| 2026-04-30 06:44 | -33.17891 | 123.69807 | 38937 ft | 580 kts | 106° |
| 2026-04-30 06:45 | -33.20221 | 123.79039 | 38933 ft | 580 kts | 106° |
| 2026-04-30 06:45 | -33.22540 | 123.88261 | 38932 ft | 580 kts | 106° |
| 2026-04-30 06:46 | -33.24462 | 123.95929 | 38934 ft | 579 kts | 106° |
| 2026-04-30 06:46 | -33.26771 | 124.05166 | 38933 ft | 579 kts | 106° |
| 2026-04-30 06:47 | -33.29442 | 124.15891 | 38933 ft | 579 kts | 106° |
| 2026-04-30 06:47 | -33.31361 | 124.23626 | 38932 ft | 579 kts | 106° |
| 2026-04-30 06:48 | -33.33637 | 124.32828 | 38933 ft | 579 kts | 106° |
| 2026-04-30 06:48 | -33.35916 | 124.42075 | 38932 ft | 579 kts | 106° |
| 2026-04-30 06:49 | -33.38187 | 124.51322 | 38933 ft | 579 kts | 105° |
| 2026-04-30 06:49 | -33.40454 | 124.60586 | 38931 ft | 579 kts | 105° |
| 2026-04-30 06:50 | -33.42697 | 124.69785 | 38936 ft | 579 kts | 105° |
| 2026-04-30 06:50 | -33.44951 | 124.79064 | 38930 ft | 579 kts | 105° |
| 2026-04-30 06:51 | -33.47195 | 124.88332 | 38929 ft | 579 kts | 105° |
| 2026-04-30 06:51 | -33.49434 | 124.97609 | 38930 ft | 580 kts | 105° |
| 2026-04-30 06:52 | -33.51612 | 125.06920 | 38930 ft | 579 kts | 104° |
| 2026-04-30 06:52 | -33.53609 | 125.16210 | 38929 ft | 579 kts | 103° |
| 2026-04-30 06:53 | -33.55598 | 125.25579 | 38929 ft | 579 kts | 103° |
| 2026-04-30 06:53 | -33.57607 | 125.34943 | 38928 ft | 579 kts | 103° |
| 2026-04-30 06:54 | -33.59623 | 125.44294 | 38932 ft | 579 kts | 103° |
| 2026-04-30 06:54 | -33.61632 | 125.53637 | 38934 ft | 578 kts | 103° |
| 2026-04-30 06:55 | -33.63624 | 125.62943 | 38936 ft | 578 kts | 103° |
| 2026-04-30 06:55 | -33.65621 | 125.72316 | 38933 ft | 578 kts | 103° |
| 2026-04-30 06:56 | -33.67594 | 125.81618 | 38933 ft | 578 kts | 103° |
| 2026-04-30 06:56 | -33.69586 | 125.91046 | 38934 ft | 578 kts | 103° |
| 2026-04-30 06:57 | -33.71548 | 126.00368 | 38939 ft | 578 kts | 103° |
| 2026-04-30 06:57 | -33.73511 | 126.09732 | 38933 ft | 578 kts | 103° |
| 2026-04-30 06:58 | -33.75466 | 126.19095 | 38934 ft | 578 kts | 103° |
| 2026-04-30 06:58 | -33.77417 | 126.28478 | 38937 ft | 578 kts | 103° |
| 2026-04-30 06:59 | -33.79361 | 126.37868 | 38933 ft | 578 kts | 103° |
| 2026-04-30 06:59 | -33.81297 | 126.47257 | 38931 ft | 578 kts | 103° |
| 2026-04-30 07:00 | -33.83212 | 126.56585 | 38929 ft | 578 kts | 103° |
| 2026-04-30 07:00 | -33.85133 | 126.65976 | 38931 ft | 578 kts | 103° |
| 2026-04-30 07:01 | -33.87051 | 126.75394 | 38930 ft | 578 kts | 103° |
| 2026-04-30 07:01 | -33.88956 | 126.84788 | 38931 ft | 578 kts | 103° |
| 2026-04-30 07:02 | -33.90860 | 126.94213 | 38929 ft | 578 kts | 103° |
| 2026-04-30 07:02 | -33.92753 | 127.03625 | 38929 ft | 578 kts | 103° |
| 2026-04-30 07:03 | -33.94624 | 127.12968 | 38927 ft | 578 kts | 102° |
| 2026-04-30 07:03 | -33.96501 | 127.22380 | 38923 ft | 578 kts | 102° |
| 2026-04-30 07:04 | -33.98371 | 127.31801 | 38922 ft | 578 kts | 102° |
| 2026-04-30 07:04 | -34.00234 | 127.41219 | 38930 ft | 578 kts | 102° |
| 2026-04-30 07:05 | -34.03018 | 127.55378 | 38925 ft | 577 kts | 102° |
| 2026-04-30 07:05 | -34.04860 | 127.64797 | 38930 ft | 578 kts | 102° |
| 2026-04-30 07:06 | -34.06686 | 127.74171 | 38931 ft | 578 kts | 102° |
| 2026-04-30 07:06 | -34.08520 | 127.83628 | 38934 ft | 577 kts | 102° |
| 2026-04-30 07:07 | -34.10342 | 127.93068 | 38933 ft | 577 kts | 102° |
| 2026-04-30 07:07 | -34.12132 | 128.02450 | 38931 ft | 576 kts | 101° |
| 2026-04-30 07:08 | -34.13421 | 128.11980 | 38933 ft | 574 kts | 96° |
| 2026-04-30 07:08 | -34.14420 | 128.21546 | 38932 ft | 573 kts | 95° |
| 2026-04-30 07:09 | -34.15462 | 128.31106 | 38933 ft | 574 kts | 96° |
| 2026-04-30 07:09 | -34.16580 | 128.40647 | 38930 ft | 574 kts | 96° |
| 2026-04-30 07:10 | -34.17717 | 128.50135 | 38933 ft | 573 kts | 96° |
| 2026-04-30 07:10 | -34.18852 | 128.59679 | 38933 ft | 573 kts | 96° |
| 2026-04-30 07:11 | -34.19976 | 128.69225 | 38932 ft | 573 kts | 96° |
| 2026-04-30 07:11 | -34.21087 | 128.78759 | 38933 ft | 573 kts | 96° |
| 2026-04-30 07:12 | -34.22190 | 128.88293 | 38931 ft | 573 kts | 96° |
| 2026-04-30 07:12 | -34.23279 | 128.97766 | 38935 ft | 572 kts | 96° |
| 2026-04-30 07:13 | -34.24373 | 129.07349 | 38935 ft | 572 kts | 96° |
| 2026-04-30 07:13 | -34.25447 | 129.16819 | 38934 ft | 572 kts | 96° |
| 2026-04-30 07:14 | -34.26520 | 129.26348 | 38932 ft | 572 kts | 96° |
| 2026-04-30 07:14 | -34.27587 | 129.35893 | 38934 ft | 571 kts | 96° |
| 2026-04-30 07:15 | -34.28637 | 129.45364 | 38934 ft | 571 kts | 96° |
| 2026-04-30 07:15 | -34.29687 | 129.54895 | 38937 ft | 571 kts | 96° |
| 2026-04-30 07:16 | -34.30729 | 129.64415 | 38934 ft | 571 kts | 96° |
| 2026-04-30 07:16 | -34.31763 | 129.73947 | 38943 ft | 571 kts | 96° |
| 2026-04-30 07:17 | -34.32791 | 129.83477 | 38934 ft | 571 kts | 96° |
| 2026-04-30 07:18 | -34.34316 | 129.97770 | 38941 ft | 571 kts | 96° |
| 2026-04-30 07:18 | -34.35324 | 130.07300 | 38941 ft | 570 kts | 96° |
| 2026-04-30 07:19 | -34.36325 | 130.16829 | 38945 ft | 570 kts | 96° |
| 2026-04-30 07:19 | -34.37309 | 130.26281 | 38944 ft | 569 kts | 96° |
| 2026-04-30 07:20 | -34.38292 | 130.35790 | 38950 ft | 569 kts | 96° |
| 2026-04-30 07:20 | -34.39268 | 130.45299 | 38949 ft | 569 kts | 96° |
| 2026-04-30 07:21 | -34.40236 | 130.54819 | 38955 ft | 568 kts | 95° |
| 2026-04-30 07:21 | -34.41196 | 130.64328 | 38956 ft | 568 kts | 95° |
| 2026-04-30 07:22 | -34.42621 | 130.78572 | 38953 ft | 567 kts | 95° |
| 2026-04-30 07:22 | -34.43561 | 130.88066 | 38957 ft | 567 kts | 95° |
| 2026-04-30 07:23 | -34.44492 | 130.97552 | 38961 ft | 567 kts | 95° |
| 2026-04-30 07:23 | -34.45411 | 131.06989 | 38960 ft | 567 kts | 95° |
| 2026-04-30 07:24 | -34.46329 | 131.16488 | 38964 ft | 567 kts | 95° |
| 2026-04-30 07:24 | -34.47239 | 131.25979 | 38965 ft | 566 kts | 95° |
| 2026-04-30 07:25 | -34.48135 | 131.35410 | 38961 ft | 566 kts | 95° |
| 2026-04-30 07:25 | -34.49028 | 131.44883 | 38960 ft | 565 kts | 95° |
| 2026-04-30 07:26 | -34.49915 | 131.54367 | 38965 ft | 565 kts | 95° |
| 2026-04-30 07:26 | -34.50795 | 131.63844 | 38963 ft | 565 kts | 95° |
| 2026-04-30 07:27 | -34.51661 | 131.73247 | 38978 ft | 564 kts | 95° |
| 2026-04-30 07:27 | -34.52525 | 131.82712 | 38982 ft | 564 kts | 95° |
| 2026-04-30 07:28 | -34.53380 | 131.92162 | 38976 ft | 563 kts | 95° |
| 2026-04-30 07:28 | -34.54228 | 132.01617 | 38983 ft | 563 kts | 95° |
| 2026-04-30 07:29 | -34.55061 | 132.10992 | 38988 ft | 563 kts | 95° |
| 2026-04-30 07:29 | -34.55894 | 132.20438 | 38992 ft | 562 kts | 95° |
| 2026-04-30 07:30 | -34.57125 | 132.34561 | 38990 ft | 561 kts | 94° |
| 2026-04-30 07:31 | -34.57936 | 132.43974 | 38997 ft | 560 kts | 94° |
| 2026-04-30 07:31 | -34.58738 | 132.53364 | 38998 ft | 559 kts | 94° |
| 2026-04-30 07:32 | -34.59531 | 132.62733 | 38999 ft | 557 kts | 94° |
| 2026-04-30 07:32 | -34.60315 | 132.72086 | 39002 ft | 557 kts | 94° |
| 2026-04-30 07:33 | -34.61086 | 132.81376 | 39004 ft | 556 kts | 94° |
| 2026-04-30 07:33 | -34.61856 | 132.90734 | 39005 ft | 556 kts | 94° |
| 2026-04-30 07:34 | -34.62617 | 133.00070 | 39012 ft | 555 kts | 94° |
| 2026-04-30 07:34 | -34.63370 | 133.09407 | 39016 ft | 555 kts | 94° |
| 2026-04-30 07:35 | -34.63992 | 133.17177 | 39013 ft | 555 kts | 94° |
| 2026-04-30 07:35 | -34.64731 | 133.26493 | 39016 ft | 554 kts | 94° |
| 2026-04-30 07:36 | -34.65463 | 133.35813 | 39022 ft | 554 kts | 94° |
| 2026-04-30 07:36 | -34.66188 | 133.45138 | 39025 ft | 554 kts | 94° |
| 2026-04-30 07:37 | -34.66905 | 133.54457 | 39019 ft | 554 kts | 94° |
| 2026-04-30 07:37 | -34.67611 | 133.63720 | 39021 ft | 554 kts | 94° |
| 2026-04-30 07:38 | -34.68318 | 133.73096 | 39023 ft | 554 kts | 94° |
| 2026-04-30 07:38 | -34.69015 | 133.82430 | 39031 ft | 554 kts | 94° |
| 2026-04-30 07:39 | -34.69705 | 133.91769 | 39029 ft | 555 kts | 94° |
| 2026-04-30 07:39 | -34.70383 | 134.01052 | 39035 ft | 555 kts | 94° |
| 2026-04-30 07:40 | -34.70951 | 134.08898 | 39027 ft | 555 kts | 94° |
| 2026-04-30 07:40 | -34.71533 | 134.17015 | 39035 ft | 555 kts | 94° |
| 2026-04-30 07:41 | -34.72197 | 134.26365 | 39037 ft | 555 kts | 93° |
| 2026-04-30 07:41 | -34.72855 | 134.35719 | 39034 ft | 554 kts | 93° |
| 2026-04-30 07:42 | -34.73502 | 134.45042 | 39033 ft | 554 kts | 93° |
| 2026-04-30 07:42 | -34.74144 | 134.54379 | 39046 ft | 553 kts | 93° |
| 2026-04-30 07:43 | -34.74773 | 134.63645 | 39041 ft | 553 kts | 93° |
| 2026-04-30 07:43 | -34.75400 | 134.72983 | 39045 ft | 552 kts | 93° |
| 2026-04-30 07:44 | -34.76018 | 134.82300 | 39048 ft | 552 kts | 93° |
| 2026-04-30 07:44 | -34.76628 | 134.91600 | 39045 ft | 551 kts | 93° |
| 2026-04-30 07:45 | -34.77228 | 135.00848 | 39044 ft | 551 kts | 93° |
| 2026-04-30 07:45 | -34.77825 | 135.10154 | 39049 ft | 550 kts | 93° |
| 2026-04-30 07:46 | -34.78409 | 135.19439 | 39053 ft | 550 kts | 93° |
| 2026-04-30 07:46 | -34.78986 | 135.28708 | 39057 ft | 549 kts | 92° |
| 2026-04-30 07:47 | -34.79556 | 135.37979 | 39058 ft | 549 kts | 92° |
| 2026-04-30 07:47 | -34.80117 | 135.47196 | 39061 ft | 549 kts | 92° |
| 2026-04-30 07:48 | -34.80674 | 135.56464 | 39060 ft | 549 kts | 92° |
| 2026-04-30 07:48 | -34.81224 | 135.65739 | 39059 ft | 549 kts | 92° |
| 2026-04-30 07:49 | -34.81767 | 135.75029 | 39064 ft | 550 kts | 92° |
| 2026-04-30 07:49 | -34.82303 | 135.84311 | 39068 ft | 550 kts | 92° |
| 2026-04-30 07:50 | -34.82832 | 135.93611 | 39068 ft | 550 kts | 92° |
| 2026-04-30 07:50 | -34.83355 | 136.02897 | 39070 ft | 550 kts | 92° |
| 2026-04-30 07:51 | -34.83868 | 136.12141 | 39075 ft | 550 kts | 92° |
| 2026-04-30 07:51 | -34.84375 | 136.21445 | 39070 ft | 550 kts | 92° |
| 2026-04-30 07:52 | -34.84875 | 136.30732 | 39072 ft | 550 kts | 92° |
| 2026-04-30 07:52 | -34.85369 | 136.40026 | 39077 ft | 549 kts | 92° |
| 2026-04-30 07:53 | -34.85855 | 136.49318 | 39082 ft | 549 kts | 92° |
| 2026-04-30 07:53 | -34.86331 | 136.58530 | 39082 ft | 549 kts | 92° |
| 2026-04-30 07:54 | -34.86802 | 136.67802 | 39086 ft | 548 kts | 92° |
| 2026-04-30 07:54 | -34.87266 | 136.77077 | 39089 ft | 548 kts | 92° |
| 2026-04-30 07:55 | -34.87723 | 136.86341 | 39093 ft | 548 kts | 92° |
| 2026-04-30 07:55 | -34.88173 | 136.95619 | 39093 ft | 548 kts | 92° |
| 2026-04-30 07:56 | -34.88616 | 137.04896 | 39097 ft | 548 kts | 92° |
| 2026-04-30 07:56 | -34.89052 | 137.14171 | 39096 ft | 548 kts | 92° |
| 2026-04-30 07:57 | -34.89478 | 137.23380 | 39106 ft | 548 kts | 92° |
| 2026-04-30 07:57 | -34.89902 | 137.32700 | 39105 ft | 548 kts | 92° |
| 2026-04-30 07:58 | -34.90313 | 137.41903 | 39115 ft | 548 kts | 92° |
| 2026-04-30 07:58 | -34.90720 | 137.51171 | 39114 ft | 547 kts | 92° |
| 2026-04-30 07:59 | -34.91120 | 137.60434 | 39113 ft | 547 kts | 92° |
| 2026-04-30 07:59 | -34.91517 | 137.69684 | 39115 ft | 547 kts | 92° |
| 2026-04-30 08:00 | -34.92089 | 137.83591 | 39120 ft | 547 kts | 92° |
| 2026-04-30 08:00 | -34.92461 | 137.92836 | 39129 ft | 546 kts | 92° |
| 2026-04-30 08:01 | -34.92827 | 138.02074 | 39129 ft | 546 kts | 92° |
| 2026-04-30 08:01 | -34.93187 | 138.11309 | 39126 ft | 545 kts | 92° |
| 2026-04-30 08:02 | -34.93710 | 138.25079 | 39132 ft | 544 kts | 92° |
| 2026-04-30 08:03 | -34.94384 | 138.43488 | 39127 ft | 543 kts | 92° |
| 2026-04-30 08:03 | -34.94488 | 138.46528 | 38567 ft | 536 kts | 91° |
| 2026-04-30 08:04 | -34.94958 | 138.51426 | 37192 ft | 538 kts | 98° |
| 2026-04-30 08:04 | -34.95415 | 138.55826 | 37455 ft | 519 kts | 94° |
| 2026-04-30 08:04 | -34.95521 | 138.60180 | 37733 ft | 497 kts | 89° |
| 2026-04-30 08:04 | -34.95524 | 138.64311 | 38021 ft | 477 kts | 89° |
| 2026-04-30 08:05 | -34.95581 | 138.68264 | 38312 ft | 456 kts | 90° |
| 2026-04-30 08:05 | -34.95668 | 138.71999 | 38606 ft | 440 kts | 91° |
| 2026-04-30 08:05 | -34.95766 | 138.75717 | 38879 ft | 437 kts | 91° |
| 2026-04-30 08:05 | -34.95860 | 138.79425 | 39089 ft | 436 kts | 91° |
| 2026-04-30 08:06 | -34.95944 | 138.83132 | 39142 ft | 439 kts | 91° |
| 2026-04-30 08:06 | -34.96090 | 138.90668 | 39153 ft | 449 kts | 90° |
| 2026-04-30 08:07 | -34.96220 | 138.98370 | 39156 ft | 460 kts | 90° |
| 2026-04-30 08:07 | -34.96345 | 139.06212 | 39156 ft | 471 kts | 90° |
| 2026-04-30 08:08 | -34.96471 | 139.14302 | 39154 ft | 483 kts | 90° |
| 2026-04-30 08:08 | -34.96594 | 139.22578 | 39149 ft | 495 kts | 90° |
| 2026-04-30 08:09 | -34.96716 | 139.31086 | 39151 ft | 507 kts | 90° |
| 2026-04-30 08:09 | -34.96835 | 139.39803 | 39149 ft | 519 kts | 90° |
| 2026-04-30 08:10 | -34.96949 | 139.48665 | 39151 ft | 529 kts | 90° |
| 2026-04-30 08:10 | -34.97058 | 139.57624 | 39157 ft | 528 kts | 90° |
| 2026-04-30 08:11 | -34.97160 | 139.66568 | 39159 ft | 527 kts | 90° |
| 2026-04-30 08:11 | -34.97255 | 139.75495 | 39162 ft | 526 kts | 90° |
| 2026-04-30 08:12 | -34.97343 | 139.84364 | 39169 ft | 525 kts | 90° |
| 2026-04-30 08:12 | -34.97425 | 139.93288 | 39174 ft | 525 kts | 90° |
| 2026-04-30 08:13 | -34.97500 | 140.02179 | 39175 ft | 524 kts | 90° |
| 2026-04-30 08:13 | -34.97569 | 140.11051 | 39178 ft | 523 kts | 90° |
| 2026-04-30 08:14 | -34.97631 | 140.19886 | 39183 ft | 523 kts | 90° |
| 2026-04-30 08:14 | -34.97686 | 140.28756 | 39184 ft | 522 kts | 90° |
| 2026-04-30 08:15 | -34.97738 | 140.37571 | 39188 ft | 521 kts | 90° |
| 2026-04-30 08:15 | -34.97811 | 140.46418 | 39194 ft | 521 kts | 90° |
| 2026-04-30 08:16 | -34.97884 | 140.55210 | 39194 ft | 521 kts | 90° |
| 2026-04-30 08:16 | -34.97948 | 140.64044 | 39196 ft | 521 kts | 90° |
| 2026-04-30 08:17 | -34.98004 | 140.72885 | 39203 ft | 520 kts | 90° |
| 2026-04-30 08:17 | -34.98053 | 140.81706 | 39202 ft | 520 kts | 90° |
| 2026-04-30 08:18 | -34.98095 | 140.90544 | 39202 ft | 520 kts | 90° |
| 2026-04-30 08:18 | -34.98131 | 140.99359 | 39206 ft | 520 kts | 90° |
| 2026-04-30 08:19 | -34.98161 | 141.08141 | 39209 ft | 520 kts | 90° |
| 2026-04-30 08:19 | -34.98184 | 141.16953 | 39209 ft | 519 kts | 90° |
| 2026-04-30 08:20 | -34.98201 | 141.25763 | 39210 ft | 519 kts | 90° |
| 2026-04-30 08:20 | -34.98211 | 141.34575 | 39216 ft | 519 kts | 90° |
| 2026-04-30 08:21 | -34.98216 | 141.43311 | 39216 ft | 519 kts | 90° |
| 2026-04-30 08:21 | -34.98215 | 141.52100 | 39222 ft | 518 kts | 90° |
| 2026-04-30 08:22 | -34.98206 | 141.60915 | 39223 ft | 518 kts | 90° |
| 2026-04-30 08:22 | -34.98189 | 141.69711 | 39225 ft | 518 kts | 90° |
| 2026-04-30 08:23 | -34.98171 | 141.77017 | 39227 ft | 518 kts | 90° |
| 2026-04-30 08:23 | -34.98144 | 141.85819 | 39223 ft | 519 kts | 90° |
| 2026-04-30 08:24 | -34.98110 | 141.94623 | 39225 ft | 519 kts | 89° |
| 2026-04-30 08:24 | -34.98071 | 142.03363 | 39230 ft | 519 kts | 89° |
| 2026-04-30 08:25 | -34.98025 | 142.12161 | 39232 ft | 519 kts | 89° |
| 2026-04-30 08:25 | -34.97973 | 142.20977 | 39233 ft | 519 kts | 89° |
| 2026-04-30 08:26 | -34.97914 | 142.29766 | 39235 ft | 519 kts | 89° |
| 2026-04-30 08:26 | -34.97849 | 142.38559 | 39233 ft | 518 kts | 89° |
| 2026-04-30 08:27 | -34.97778 | 142.47350 | 39238 ft | 518 kts | 89° |
| 2026-04-30 08:27 | -34.97700 | 142.56127 | 39239 ft | 518 kts | 89° |
| 2026-04-30 08:28 | -34.97616 | 142.64913 | 39240 ft | 518 kts | 89° |
| 2026-04-30 08:28 | -34.97526 | 142.73640 | 39243 ft | 518 kts | 89° |
| 2026-04-30 08:29 | -34.97430 | 142.82414 | 39247 ft | 518 kts | 89° |
| 2026-04-30 08:29 | -34.97327 | 142.91199 | 39249 ft | 517 kts | 89° |
| 2026-04-30 08:30 | -34.97218 | 142.99965 | 39251 ft | 517 kts | 88° |
| 2026-04-30 08:30 | -34.97103 | 143.08748 | 39252 ft | 517 kts | 88° |
| 2026-04-30 08:31 | -34.96982 | 143.17462 | 39254 ft | 517 kts | 88° |
| 2026-04-30 08:31 | -34.96856 | 143.26235 | 39256 ft | 517 kts | 88° |
| 2026-04-30 08:32 | -34.96750 | 143.35002 | 39259 ft | 517 kts | 88° |
| 2026-04-30 08:32 | -34.96646 | 143.43776 | 39260 ft | 517 kts | 88° |
| 2026-04-30 08:33 | -34.96533 | 143.52551 | 39261 ft | 517 kts | 88° |
| 2026-04-30 08:33 | -34.96411 | 143.61309 | 39264 ft | 517 kts | 88° |
| 2026-04-30 08:34 | -34.96283 | 143.70024 | 39265 ft | 517 kts | 88° |
| 2026-04-30 08:34 | -34.96147 | 143.78778 | 39261 ft | 517 kts | 88° |
| 2026-04-30 08:35 | -34.96006 | 143.87550 | 39267 ft | 516 kts | 88° |
| 2026-04-30 08:35 | -34.95858 | 143.96305 | 39265 ft | 516 kts | 88° |
| 2026-04-30 08:36 | -34.95704 | 144.05051 | 39270 ft | 516 kts | 88° |
| 2026-04-30 08:36 | -34.95545 | 144.13747 | 39272 ft | 515 kts | 88° |
| 2026-04-30 08:37 | -34.95379 | 144.22489 | 39270 ft | 515 kts | 88° |
| 2026-04-30 08:37 | -34.95207 | 144.31219 | 39274 ft | 514 kts | 87° |
| 2026-04-30 08:38 | -34.95028 | 144.39929 | 39275 ft | 514 kts | 87° |
| 2026-04-30 08:38 | -34.94845 | 144.48581 | 39278 ft | 513 kts | 87° |
| 2026-04-30 08:39 | -34.94655 | 144.57284 | 39275 ft | 512 kts | 87° |
| 2026-04-30 08:39 | -34.94459 | 144.65963 | 39275 ft | 512 kts | 87° |
| 2026-04-30 08:40 | -34.94257 | 144.74633 | 39282 ft | 512 kts | 87° |
| 2026-04-30 08:40 | -34.94048 | 144.83306 | 39281 ft | 511 kts | 87° |
| 2026-04-30 08:41 | -34.93834 | 144.91960 | 39283 ft | 511 kts | 86° |
| 2026-04-30 08:41 | -34.93615 | 145.00561 | 39285 ft | 511 kts | 86° |
| 2026-04-30 08:42 | -34.93389 | 145.09229 | 39285 ft | 511 kts | 86° |
| 2026-04-30 08:42 | -34.93151 | 145.17882 | 39285 ft | 510 kts | 86° |
| 2026-04-30 08:43 | -34.92902 | 145.26535 | 39285 ft | 510 kts | 86° |
| 2026-04-30 08:43 | -34.92650 | 145.35112 | 39286 ft | 509 kts | 86° |
| 2026-04-30 08:44 | -34.92392 | 145.43746 | 39287 ft | 509 kts | 86° |
| 2026-04-30 08:44 | -34.92128 | 145.52363 | 39292 ft | 509 kts | 86° |
| 2026-04-30 08:45 | -34.91858 | 145.60978 | 39291 ft | 508 kts | 86° |
| 2026-04-30 08:45 | -34.91583 | 145.69579 | 39293 ft | 508 kts | 86° |
| 2026-04-30 08:46 | -34.91301 | 145.78183 | 39294 ft | 508 kts | 86° |
| 2026-04-30 08:46 | -34.91014 | 145.86767 | 39295 ft | 507 kts | 86° |
| 2026-04-30 08:47 | -34.90723 | 145.95310 | 39301 ft | 507 kts | 86° |
| 2026-04-30 08:47 | -34.90423 | 146.03899 | 39300 ft | 507 kts | 86° |
| 2026-04-30 08:48 | -34.90118 | 146.12479 | 39304 ft | 507 kts | 86° |
| 2026-04-30 08:48 | -34.89807 | 146.21060 | 39303 ft | 507 kts | 86° |
| 2026-04-30 08:49 | -34.89490 | 146.29653 | 39310 ft | 507 kts | 86° |
| 2026-04-30 08:49 | -34.89167 | 146.38228 | 39311 ft | 507 kts | 86° |
| 2026-04-30 08:50 | -34.88837 | 146.46811 | 39310 ft | 507 kts | 86° |
| 2026-04-30 08:50 | -34.88502 | 146.55375 | 39316 ft | 506 kts | 86° |
| 2026-04-30 08:51 | -34.88162 | 146.63945 | 39321 ft | 506 kts | 86° |
| 2026-04-30 08:51 | -34.87814 | 146.72517 | 39328 ft | 506 kts | 86° |
| 2026-04-30 08:52 | -34.87462 | 146.81075 | 39326 ft | 506 kts | 86° |
| 2026-04-30 08:52 | -34.87103 | 146.89642 | 39329 ft | 506 kts | 86° |
| 2026-04-30 08:53 | -34.86740 | 146.98157 | 39330 ft | 507 kts | 86° |
| 2026-04-30 08:53 | -34.86368 | 147.06728 | 39333 ft | 507 kts | 86° |
| 2026-04-30 08:54 | -34.85990 | 147.15309 | 39337 ft | 507 kts | 86° |
| 2026-04-30 08:54 | -34.85606 | 147.23902 | 39352 ft | 508 kts | 86° |
| 2026-04-30 08:55 | -34.85215 | 147.32501 | 39342 ft | 508 kts | 86° |
| 2026-04-30 08:55 | -34.84821 | 147.41042 | 39352 ft | 509 kts | 86° |
| 2026-04-30 08:56 | -34.84417 | 147.49664 | 39348 ft | 509 kts | 86° |
| 2026-04-30 08:56 | -34.84010 | 147.58224 | 39355 ft | 509 kts | 86° |
| 2026-04-30 08:57 | -34.83594 | 147.66834 | 39354 ft | 509 kts | 86° |
| 2026-04-30 08:57 | -34.83172 | 147.75455 | 39354 ft | 510 kts | 86° |
| 2026-04-30 08:58 | -34.82743 | 147.84089 | 39368 ft | 510 kts | 86° |
| 2026-04-30 08:58 | -34.82309 | 147.92697 | 39359 ft | 510 kts | 86° |
| 2026-04-30 08:59 | -34.81871 | 148.01266 | 39241 ft | 509 kts | 86° |
| 2026-04-30 08:59 | -34.81650 | 148.05560 | 38871 ft | 507 kts | 86° |
| 2026-04-30 08:59 | -34.81427 | 148.09839 | 38418 ft | 506 kts | 86° |
| 2026-04-30 08:59 | -34.81204 | 148.14116 | 37993 ft | 505 kts | 86° |
| 2026-04-30 09:00 | -34.80980 | 148.18370 | 37551 ft | 504 kts | 86° |
| 2026-04-30 09:00 | -34.80754 | 148.22621 | 37127 ft | 503 kts | 86° |
| 2026-04-30 09:00 | -34.80527 | 148.26882 | 36711 ft | 503 kts | 86° |
| 2026-04-30 09:00 | -34.80299 | 148.31133 | 36305 ft | 502 kts | 86° |
| 2026-04-30 09:01 | -34.80073 | 148.35314 | 35913 ft | 501 kts | 86° |
| 2026-04-30 09:01 | -34.79844 | 148.39526 | 35524 ft | 498 kts | 86° |
| 2026-04-30 09:01 | -34.79614 | 148.43725 | 35141 ft | 493 kts | 86° |
| 2026-04-30 09:01 | -34.79386 | 148.47866 | 34768 ft | 488 kts | 86° |
| 2026-04-30 09:02 | -34.78931 | 148.56039 | 33961 ft | 479 kts | 86° |
| 2026-04-30 09:02 | -34.78708 | 148.60016 | 33541 ft | 475 kts | 86° |
| 2026-04-30 09:02 | -34.78482 | 148.64003 | 33131 ft | 471 kts | 86° |
| 2026-04-30 09:03 | -34.78257 | 148.67960 | 32724 ft | 468 kts | 86° |
| 2026-04-30 09:03 | -34.78031 | 148.71907 | 32321 ft | 465 kts | 86° |
| 2026-04-30 09:03 | -34.77807 | 148.75814 | 31925 ft | 462 kts | 86° |
| 2026-04-30 09:03 | -34.77582 | 148.79702 | 31531 ft | 459 kts | 86° |
| 2026-04-30 09:04 | -34.77358 | 148.83561 | 31148 ft | 456 kts | 86° |
| 2026-04-30 09:04 | -34.77134 | 148.87404 | 30764 ft | 453 kts | 86° |
| 2026-04-30 09:04 | -34.76913 | 148.91170 | 30378 ft | 451 kts | 86° |
| 2026-04-30 09:04 | -34.76689 | 148.94964 | 29936 ft | 448 kts | 85° |
| 2026-04-30 09:05 | -34.76465 | 148.98728 | 29512 ft | 445 kts | 85° |
| 2026-04-30 09:05 | -34.76242 | 149.02482 | 29076 ft | 442 kts | 85° |
| 2026-04-30 09:05 | -34.76019 | 149.06194 | 28669 ft | 439 kts | 85° |
| 2026-04-30 09:05 | -34.75796 | 149.09892 | 28239 ft | 436 kts | 85° |
| 2026-04-30 09:06 | -34.75577 | 149.13513 | 27837 ft | 433 kts | 85° |
| 2026-04-30 09:06 | -34.75355 | 149.17160 | 27426 ft | 431 kts | 85° |
| 2026-04-30 09:06 | -34.75134 | 149.20776 | 27034 ft | 428 kts | 85° |
| 2026-04-30 09:06 | -34.74913 | 149.24380 | 26640 ft | 426 kts | 85° |
| 2026-04-30 09:07 | -34.74691 | 149.27969 | 26185 ft | 424 kts | 85° |
| 2026-04-30 09:07 | -34.74470 | 149.31522 | 25754 ft | 421 kts | 85° |
| 2026-04-30 09:07 | -34.74250 | 149.35059 | 25330 ft | 418 kts | 85° |
| 2026-04-30 09:07 | -34.73805 | 149.38533 | 24917 ft | 414 kts | 73° |
| 2026-04-30 09:08 | -34.72795 | 149.41787 | 24513 ft | 410 kts | 66° |
| 2026-04-30 09:08 | -34.71584 | 149.44918 | 24108 ft | 408 kts | 63° |
| 2026-04-30 09:08 | -34.70301 | 149.47922 | 23660 ft | 405 kts | 61° |
| 2026-04-30 09:08 | -34.68957 | 149.50922 | 23178 ft | 402 kts | 60° |
| 2026-04-30 09:09 | -34.67607 | 149.53891 | 22709 ft | 399 kts | 60° |
| 2026-04-30 09:09 | -34.66272 | 149.56836 | 22248 ft | 396 kts | 61° |
| 2026-04-30 09:09 | -34.64962 | 149.59760 | 21799 ft | 392 kts | 61° |
| 2026-04-30 09:09 | -34.63672 | 149.62667 | 21356 ft | 388 kts | 61° |
| 2026-04-30 09:10 | -34.62402 | 149.65550 | 20903 ft | 385 kts | 62° |
| 2026-04-30 09:10 | -34.61149 | 149.68408 | 20477 ft | 382 kts | 62° |
| 2026-04-30 09:10 | -34.59906 | 149.71247 | 20046 ft | 379 kts | 62° |
| 2026-04-30 09:10 | -34.58671 | 149.74064 | 19624 ft | 376 kts | 62° |
| 2026-04-30 09:11 | -34.57447 | 149.76854 | 19207 ft | 374 kts | 61° |
| 2026-04-30 09:11 | -34.56243 | 149.79595 | 18822 ft | 371 kts | 62° |
| 2026-04-30 09:11 | -34.55032 | 149.82349 | 18438 ft | 368 kts | 61° |
| 2026-04-30 09:11 | -34.53828 | 149.85084 | 18053 ft | 367 kts | 61° |
| 2026-04-30 09:12 | -34.52621 | 149.87823 | 17673 ft | 365 kts | 61° |
| 2026-04-30 09:12 | -34.51429 | 149.90524 | 17293 ft | 363 kts | 61° |
| 2026-04-30 09:12 | -34.50241 | 149.93216 | 16907 ft | 361 kts | 61° |
| 2026-04-30 09:12 | -34.49059 | 149.95893 | 16538 ft | 359 kts | 61° |
| 2026-04-30 09:13 | -34.47883 | 149.98550 | 16173 ft | 357 kts | 61° |
| 2026-04-30 09:13 | -34.46711 | 150.01195 | 15801 ft | 355 kts | 61° |
| 2026-04-30 09:13 | -34.45550 | 150.03815 | 15448 ft | 353 kts | 61° |
| 2026-04-30 09:13 | -34.44387 | 150.06437 | 15098 ft | 351 kts | 61° |
| 2026-04-30 09:14 | -34.43232 | 150.09039 | 14747 ft | 349 kts | 60° |
| 2026-04-30 09:14 | -34.42475 | 150.10746 | 14515 ft | 348 kts | 60° |
| 2026-04-30 09:14 | -34.40955 | 150.14166 | 14033 ft | 346 kts | 60° |
| 2026-04-30 09:14 | -34.39818 | 150.16719 | 13648 ft | 344 kts | 60° |
| 2026-04-30 09:15 | -34.38685 | 150.19260 | 13255 ft | 341 kts | 60° |
| 2026-04-30 09:15 | -34.37923 | 150.20967 | 13006 ft | 340 kts | 60° |
| 2026-04-30 09:15 | -34.36804 | 150.23478 | 12625 ft | 337 kts | 61° |
| 2026-04-30 09:15 | -34.35337 | 150.26765 | 12144 ft | 334 kts | 61° |
| 2026-04-30 09:16 | -34.34591 | 150.28437 | 11892 ft | 332 kts | 61° |
| 2026-04-30 09:16 | -34.33511 | 150.30856 | 11513 ft | 330 kts | 61° |
| 2026-04-30 09:16 | -34.32424 | 150.33290 | 11129 ft | 327 kts | 61° |
| 2026-04-30 09:16 | -34.31344 | 150.35704 | 10753 ft | 325 kts | 61° |
| 2026-04-30 09:17 | -34.30277 | 150.38088 | 10376 ft | 320 kts | 62° |
| 2026-04-30 09:17 | -34.29220 | 150.40449 | 9960 ft | 316 kts | 62° |
| 2026-04-30 09:17 | -34.28191 | 150.42753 | 9674 ft | 307 kts | 62° |
| 2026-04-30 09:17 | -34.27196 | 150.44991 | 9449 ft | 296 kts | 62° |
| 2026-04-30 09:18 | -34.26234 | 150.47147 | 9244 ft | 286 kts | 62° |
| 2026-04-30 09:18 | -34.25300 | 150.49236 | 9057 ft | 279 kts | 62° |
| 2026-04-30 09:18 | -34.24376 | 150.51300 | 8875 ft | 278 kts | 62° |
| 2026-04-30 09:18 | -34.23468 | 150.53328 | 8706 ft | 278 kts | 62° |
| 2026-04-30 09:19 | -34.22546 | 150.55388 | 8529 ft | 278 kts | 62° |
| 2026-04-30 09:19 | -34.21630 | 150.57431 | 8357 ft | 277 kts | 62° |
| 2026-04-30 09:19 | -34.20713 | 150.59476 | 8170 ft | 276 kts | 62° |
| 2026-04-30 09:19 | -34.19799 | 150.61513 | 8008 ft | 275 kts | 62° |
| 2026-04-30 09:20 | -34.18888 | 150.63542 | 7825 ft | 274 kts | 62° |
| 2026-04-30 09:20 | -34.17980 | 150.65566 | 7665 ft | 274 kts | 62° |
| 2026-04-30 09:20 | -34.17077 | 150.67587 | 7491 ft | 273 kts | 62° |
| 2026-04-30 09:20 | -34.16172 | 150.69596 | 7326 ft | 272 kts | 61° |
| 2026-04-30 09:21 | -34.15266 | 150.71605 | 7154 ft | 271 kts | 61° |
| 2026-04-30 09:21 | -34.14364 | 150.73604 | 6987 ft | 271 kts | 61° |
| 2026-04-30 09:21 | -34.13465 | 150.75598 | 6813 ft | 270 kts | 61° |
| 2026-04-30 09:21 | -34.12565 | 150.77591 | 6642 ft | 269 kts | 61° |
| 2026-04-30 09:22 | -34.11672 | 150.79575 | 6461 ft | 269 kts | 61° |
| 2026-04-30 09:22 | -34.10780 | 150.81552 | 6284 ft | 268 kts | 61° |
| 2026-04-30 09:22 | -34.09891 | 150.83523 | 6094 ft | 267 kts | 61° |
| 2026-04-30 09:22 | -34.09004 | 150.85489 | 5929 ft | 267 kts | 61° |
| 2026-04-30 09:23 | -34.08131 | 150.87430 | 5751 ft | 266 kts | 61° |
| 2026-04-30 09:23 | -34.07251 | 150.89387 | 5582 ft | 265 kts | 61° |
| 2026-04-30 09:23 | -34.06371 | 150.91343 | 5402 ft | 264 kts | 61° |
| 2026-04-30 09:23 | -34.05493 | 150.93288 | 5236 ft | 264 kts | 61° |
| 2026-04-30 09:24 | -34.04620 | 150.95227 | 5050 ft | 263 kts | 61° |
| 2026-04-30 09:24 | -34.03765 | 150.97175 | 4877 ft | 262 kts | 64° |
| 2026-04-30 09:24 | -34.03261 | 150.99273 | 4695 ft | 262 kts | 84° |
| 2026-04-30 09:24 | -34.03477 | 151.01421 | 4520 ft | 263 kts | 108° |
| 2026-04-30 09:25 | -34.04411 | 151.03309 | 4343 ft | 265 kts | 127° |
| 2026-04-30 09:25 | -34.05658 | 151.04942 | 4176 ft | 265 kts | 131° |
| 2026-04-30 09:25 | -34.06960 | 151.06521 | 3996 ft | 265 kts | 134° |
| 2026-04-30 09:25 | -34.08475 | 151.07785 | 3825 ft | 268 kts | 154° |
| 2026-04-30 09:26 | -34.10239 | 151.08433 | 3659 ft | 261 kts | 165° |
| 2026-04-30 09:26 | -34.11987 | 151.08872 | 3484 ft | 252 kts | 166° |
| 2026-04-30 09:26 | -34.13687 | 151.09275 | 3321 ft | 247 kts | 167° |
| 2026-04-30 09:26 | -34.15376 | 151.09678 | 3148 ft | 247 kts | 167° |
| 2026-04-30 09:27 | -34.17044 | 151.10081 | 3014 ft | 238 kts | 166° |
| 2026-04-30 09:27 | -34.18617 | 151.10470 | 2999 ft | 234 kts | 166° |
| 2026-04-30 09:27 | -34.20126 | 151.11058 | 3012 ft | 222 kts | 147° |
| 2026-04-30 09:27 | -34.21160 | 151.12370 | 2999 ft | 216 kts | 115° |
| 2026-04-30 09:28 | -34.21438 | 151.14113 | 2991 ft | 212 kts | 83° |
| 2026-04-30 09:28 | -34.21009 | 151.15795 | 2996 ft | 209 kts | 65° |
| 2026-04-30 09:28 | -34.20390 | 151.17390 | 2998 ft | 209 kts | 63° |
| 2026-04-30 09:28 | -34.19753 | 151.18968 | 2994 ft | 208 kts | 63° |
| 2026-04-30 09:29 | -34.18893 | 151.20344 | 2986 ft | 204 kts | 39° |
| 2026-04-30 09:29 | -34.17702 | 151.21127 | 3001 ft | 194 kts | 25° |
| 2026-04-30 09:29 | -34.16444 | 151.21747 | 2998 ft | 192 kts | 23° |
| 2026-04-30 09:29 | -34.15214 | 151.22330 | 2993 ft | 192 kts | 22° |
| 2026-04-30 09:30 | -34.13878 | 151.22541 | 2993 ft | 196 kts | 0° |
| 2026-04-30 09:30 | -34.12515 | 151.22275 | 2994 ft | 198 kts | 351° |
| 2026-04-30 09:30 | -34.11170 | 151.21906 | 2947 ft | 198 kts | 350° |
| 2026-04-30 09:30 | -34.09851 | 151.21556 | 2743 ft | 195 kts | 351° |
| 2026-04-30 09:31 | -34.08520 | 151.21212 | 2455 ft | 196 kts | 351° |
| 2026-04-30 09:31 | -34.07191 | 151.20868 | 2187 ft | 192 kts | 351° |
| 2026-04-30 09:31 | -34.05946 | 151.20540 | 1937 ft | 174 kts | 351° |
| 2026-04-30 09:31 | -34.04812 | 151.20246 | 1706 ft | 160 kts | 352° |
| 2026-04-30 09:32 | -34.03773 | 151.19977 | 1500 ft | 147 kts | 352° |
| 2026-04-30 09:32 | -34.02811 | 151.19725 | 1314 ft | 136 kts | 352° |
| 2026-04-30 09:32 | -34.01896 | 151.19486 | 1141 ft | 134 kts | 353° |
| 2026-04-30 09:32 | -34.00977 | 151.19250 | 956 ft | 135 kts | 352° |
| 2026-04-30 09:33 | -34.00050 | 151.19017 | 782 ft | 137 kts | 352° |
| 2026-04-30 09:33 | -33.99122 | 151.18786 | 550 ft | 136 kts | 349° |
| 2026-04-30 09:33 | -33.98206 | 151.18519 | 356 ft | 134 kts | 351° |
| 2026-04-30 09:33 | -33.97298 | 151.18296 | 201 ft | 133 kts | 351° |
| 2026-04-30 09:34 | -33.96397 | 151.18054 | 66 ft | 134 kts | 350° |
| 2026-04-30 09:34 | -33.95523 | 151.17833 | 28 ft | 110 kts | 348° |
| 2026-04-30 09:34 | -33.95062 | 151.17712 | 29 ft | 26 kts | 347° |
| 2026-04-30 09:34 | -33.94829 | 151.17650 | 29 ft | 41 kts | 348° |
| 2026-04-30 09:35 | -33.94526 | 151.17538 | 30 ft | 44 kts | 333° |
| 2026-04-30 09:35 | -33.94349 | 151.17377 | 31 ft | 24 kts | 316° |
| 2026-04-30 09:35 | -33.94262 | 151.17300 | 29 ft | 11 kts | 339° |
| 2026-04-30 09:35 | -33.94239 | 151.17294 | 28 ft | 3 kts | 349° |
| 2026-04-30 09:36 | -33.94205 | 151.17285 | 28 ft | 7 kts | 349° |
| 2026-04-30 09:36 | -33.94144 | 151.17271 | 28 ft | 11 kts | 348° |
| 2026-04-30 09:36 | -33.94063 | 151.17249 | 28 ft | 14 kts | 347° |
| 2026-04-30 09:36 | -33.93986 | 151.17203 | 29 ft | 12 kts | 291° |
| 2026-04-30 09:37 | -33.94000 | 151.17096 | 28 ft | 14 kts | 254° |
| 2026-04-30 09:37 | -33.94029 | 151.16974 | 27 ft | 16 kts | 253° |
| 2026-04-30 09:37 | -33.94057 | 151.16862 | 27 ft | 15 kts | 253° |
| 2026-04-30 09:37 | -33.94083 | 151.16759 | 28 ft | 0 kts | 255° |
| 2026-04-30 09:38 | -33.94097 | 151.16697 | 27 ft | 3 kts | 255° |
| 2026-04-30 09:38 | -33.94102 | 151.16672 | 27 ft | 8 kts | 255° |
| 2026-04-30 09:38 | -33.94120 | 151.16594 | 27 ft | 12 kts | 255° |
| 2026-04-30 09:38 | -33.94131 | 151.16502 | 27 ft | 9 kts | 288° |
| 2026-04-30 09:39 | -33.94093 | 151.16476 | 27 ft | 7 kts | 344° |
| 2026-04-30 09:39 | -33.94057 | 151.16463 | 27 ft | 0 kts | 344° |